<?xml version="1.0" encoding="UTF-8" standalone="no" ?>
<gpx xmlns="http://www.topografix.com/GPX/1/1" xmlns:xsi="http://www.w3.org/2001/XMLSchema-instance" xsi:schemaLocation="http://www.topografix.com/GPX/1/1 http://www.topografix.com/GPX/1/1/gpx.xsd" version="1.1" creator="VisuGPX - https://www.visugpx.com">
  <metadata>
    <name>Rando autour de valloire.</name>
    <desc><![CDATA[Randonnée d'environ 2h autour de Valloire. 
Départ du centre de valloire en direction des gorges de l'enfer puis traverser le pont pour rejoindre le Serroz par un petit sentier à travers la foret.
de la Ruaz rejoindre Cornafond par la piste verte et traverser vers Geneuil.
Le circuit est roulant sans portage et sans difficulté technique.
]]></desc>
  </metadata>
  <trk>
    <name><![CDATA[Rando autour de valloire._1]]></name>
    <trkseg>
      <trkpt lat="45.16531" lon="6.43453">
        <ele>1480</ele>
        <time>2018-09-02T05:05:55Z</time>
      </trkpt>
      <trkpt lat="45.16532" lon="6.43454">
        <ele>1480</ele>
        <time>2018-09-02T05:05:57Z</time>
      </trkpt>
      <trkpt lat="45.16534" lon="6.43454">
        <ele>1480</ele>
        <time>2018-09-02T05:06:03Z</time>
      </trkpt>
      <trkpt lat="45.1654" lon="6.43465">
        <ele>1483</ele>
        <time>2018-09-02T05:06:09Z</time>
      </trkpt>
      <trkpt lat="45.16547" lon="6.43479">
        <ele>1487</ele>
        <time>2018-09-02T05:06:15Z</time>
      </trkpt>
      <trkpt lat="45.1657" lon="6.43483">
        <ele>1483</ele>
        <time>2018-09-02T05:06:21Z</time>
      </trkpt>
      <trkpt lat="45.16603" lon="6.43486">
        <ele>1478</ele>
        <time>2018-09-02T05:06:27Z</time>
      </trkpt>
      <trkpt lat="45.16593" lon="6.43461">
        <ele>1473</ele>
        <time>2018-09-02T05:06:33Z</time>
      </trkpt>
      <trkpt lat="45.16565" lon="6.43442">
        <ele>1470</ele>
        <time>2018-09-02T05:06:39Z</time>
      </trkpt>
      <trkpt lat="45.16505" lon="6.43405">
        <ele>1468</ele>
        <time>2018-09-02T05:06:51Z</time>
      </trkpt>
      <trkpt lat="45.16511" lon="6.43381">
        <ele>1457</ele>
        <time>2018-09-02T05:06:57Z</time>
      </trkpt>
      <trkpt lat="45.16539" lon="6.43389">
        <ele>1457</ele>
        <time>2018-09-02T05:07:03Z</time>
      </trkpt>
      <trkpt lat="45.1658" lon="6.43395">
        <ele>1456</ele>
        <time>2018-09-02T05:07:09Z</time>
      </trkpt>
      <trkpt lat="45.1661" lon="6.43397">
        <ele>1457</ele>
        <time>2018-09-02T05:07:15Z</time>
      </trkpt>
      <trkpt lat="45.16565" lon="6.43377">
        <ele>1452</ele>
        <time>2018-09-02T05:07:38Z</time>
      </trkpt>
      <trkpt lat="45.16527" lon="6.43352">
        <ele>1446</ele>
        <time>2018-09-02T05:07:43Z</time>
      </trkpt>
      <trkpt lat="45.16502" lon="6.43331">
        <ele>1440</ele>
        <time>2018-09-02T05:07:49Z</time>
      </trkpt>
      <trkpt lat="45.1648" lon="6.43311">
        <ele>1439</ele>
        <time>2018-09-02T05:07:55Z</time>
      </trkpt>
      <trkpt lat="45.16461" lon="6.43288">
        <ele>1438</ele>
        <time>2018-09-02T05:08:01Z</time>
      </trkpt>
      <trkpt lat="45.16447" lon="6.4327">
        <ele>1435</ele>
        <time>2018-09-02T05:08:07Z</time>
      </trkpt>
      <trkpt lat="45.1644" lon="6.43254">
        <ele>1432</ele>
        <time>2018-09-02T05:08:13Z</time>
      </trkpt>
      <trkpt lat="45.16448" lon="6.43239">
        <ele>1426</ele>
        <time>2018-09-02T05:08:19Z</time>
      </trkpt>
      <trkpt lat="45.16458" lon="6.43219">
        <ele>1419</ele>
        <time>2018-09-02T05:08:25Z</time>
      </trkpt>
      <trkpt lat="45.16463" lon="6.43187">
        <ele>1412</ele>
        <time>2018-09-02T05:08:31Z</time>
      </trkpt>
      <trkpt lat="45.16456" lon="6.4316">
        <ele>1410</ele>
        <time>2018-09-02T05:08:37Z</time>
      </trkpt>
      <trkpt lat="45.16448" lon="6.4313">
        <ele>1409</ele>
        <time>2018-09-02T05:08:43Z</time>
      </trkpt>
      <trkpt lat="45.16452" lon="6.43103">
        <ele>1408</ele>
        <time>2018-09-02T05:08:49Z</time>
      </trkpt>
      <trkpt lat="45.16446" lon="6.43078">
        <ele>1408</ele>
        <time>2018-09-02T05:08:55Z</time>
      </trkpt>
      <trkpt lat="45.16437" lon="6.43057">
        <ele>1409</ele>
        <time>2018-09-02T05:09:01Z</time>
      </trkpt>
      <trkpt lat="45.16425" lon="6.43038">
        <ele>1411</ele>
        <time>2018-09-02T05:09:07Z</time>
      </trkpt>
      <trkpt lat="45.16416" lon="6.43022">
        <ele>1413</ele>
        <time>2018-09-02T05:09:13Z</time>
      </trkpt>
      <trkpt lat="45.16417" lon="6.42997">
        <ele>1413</ele>
        <time>2018-09-02T05:09:19Z</time>
      </trkpt>
      <trkpt lat="45.1642" lon="6.42961">
        <ele>1412</ele>
        <time>2018-09-02T05:09:25Z</time>
      </trkpt>
      <trkpt lat="45.1642" lon="6.42923">
        <ele>1411</ele>
        <time>2018-09-02T05:09:31Z</time>
      </trkpt>
      <trkpt lat="45.16426" lon="6.42889">
        <ele>1410</ele>
        <time>2018-09-02T05:09:37Z</time>
      </trkpt>
      <trkpt lat="45.16424" lon="6.42854">
        <ele>1410</ele>
        <time>2018-09-02T05:09:43Z</time>
      </trkpt>
      <trkpt lat="45.16422" lon="6.42816">
        <ele>1411</ele>
        <time>2018-09-02T05:09:49Z</time>
      </trkpt>
      <trkpt lat="45.16415" lon="6.42744">
        <ele>1414</ele>
        <time>2018-09-02T05:10:01Z</time>
      </trkpt>
      <trkpt lat="45.16412" lon="6.42681">
        <ele>1418</ele>
        <time>2018-09-02T05:10:13Z</time>
      </trkpt>
      <trkpt lat="45.16411" lon="6.4265">
        <ele>1419</ele>
        <time>2018-09-02T05:10:19Z</time>
      </trkpt>
      <trkpt lat="45.16401" lon="6.42626">
        <ele>1419</ele>
        <time>2018-09-02T05:10:25Z</time>
      </trkpt>
      <trkpt lat="45.16404" lon="6.426">
        <ele>1420</ele>
        <time>2018-09-02T05:10:31Z</time>
      </trkpt>
      <trkpt lat="45.16407" lon="6.42572">
        <ele>1421</ele>
        <time>2018-09-02T05:10:37Z</time>
      </trkpt>
      <trkpt lat="45.16406" lon="6.42551">
        <ele>1424</ele>
        <time>2018-09-02T05:10:43Z</time>
      </trkpt>
      <trkpt lat="45.16401" lon="6.42533">
        <ele>1426</ele>
        <time>2018-09-02T05:10:49Z</time>
      </trkpt>
      <trkpt lat="45.16401" lon="6.42509">
        <ele>1429</ele>
        <time>2018-09-02T05:10:55Z</time>
      </trkpt>
      <trkpt lat="45.16404" lon="6.42492">
        <ele>1430</ele>
        <time>2018-09-02T05:11:01Z</time>
      </trkpt>
      <trkpt lat="45.16424" lon="6.42465">
        <ele>1427</ele>
        <time>2018-09-02T05:11:13Z</time>
      </trkpt>
      <trkpt lat="45.16412" lon="6.42448">
        <ele>1429</ele>
        <time>2018-09-02T05:11:19Z</time>
      </trkpt>
      <trkpt lat="45.16396" lon="6.42432">
        <ele>1432</ele>
        <time>2018-09-02T05:11:25Z</time>
      </trkpt>
      <trkpt lat="45.16384" lon="6.42418">
        <ele>1434</ele>
        <time>2018-09-02T05:11:31Z</time>
      </trkpt>
      <trkpt lat="45.16383" lon="6.42394">
        <ele>1434</ele>
        <time>2018-09-02T05:11:37Z</time>
      </trkpt>
      <trkpt lat="45.16391" lon="6.42372">
        <ele>1433</ele>
        <time>2018-09-02T05:11:43Z</time>
      </trkpt>
      <trkpt lat="45.16406" lon="6.42334">
        <ele>1435</ele>
        <time>2018-09-02T05:11:55Z</time>
      </trkpt>
      <trkpt lat="45.16404" lon="6.42319">
        <ele>1436</ele>
        <time>2018-09-02T05:12:01Z</time>
      </trkpt>
      <trkpt lat="45.16399" lon="6.42302">
        <ele>1436</ele>
        <time>2018-09-02T05:12:07Z</time>
      </trkpt>
      <trkpt lat="45.16391" lon="6.42286">
        <ele>1438</ele>
        <time>2018-09-02T05:12:13Z</time>
      </trkpt>
      <trkpt lat="45.16378" lon="6.4227">
        <ele>1440</ele>
        <time>2018-09-02T05:12:19Z</time>
      </trkpt>
      <trkpt lat="45.16362" lon="6.42262">
        <ele>1440</ele>
        <time>2018-09-02T05:12:31Z</time>
      </trkpt>
      <trkpt lat="45.1637" lon="6.42257">
        <ele>1441</ele>
        <time>2018-09-02T05:12:37Z</time>
      </trkpt>
      <trkpt lat="45.1637" lon="6.42254">
        <ele>1441</ele>
        <time>2018-09-02T05:12:43Z</time>
      </trkpt>
      <trkpt lat="45.1637" lon="6.42254">
        <ele>1441</ele>
        <time>2018-09-02T05:12:49Z</time>
      </trkpt>
      <trkpt lat="45.1637" lon="6.42253">
        <ele>1441</ele>
        <time>2018-09-02T05:12:55Z</time>
      </trkpt>
      <trkpt lat="45.1637" lon="6.42253">
        <ele>1441</ele>
        <time>2018-09-02T05:13:01Z</time>
      </trkpt>
      <trkpt lat="45.16369" lon="6.42253">
        <ele>1441</ele>
        <time>2018-09-02T05:13:07Z</time>
      </trkpt>
      <trkpt lat="45.16369" lon="6.42253">
        <ele>1441</ele>
        <time>2018-09-02T05:13:13Z</time>
      </trkpt>
      <trkpt lat="45.16369" lon="6.42253">
        <ele>1441</ele>
        <time>2018-09-02T05:13:19Z</time>
      </trkpt>
      <trkpt lat="45.16373" lon="6.42238">
        <ele>1442</ele>
        <time>2018-09-02T05:13:25Z</time>
      </trkpt>
      <trkpt lat="45.16376" lon="6.42217">
        <ele>1443</ele>
        <time>2018-09-02T05:13:31Z</time>
      </trkpt>
      <trkpt lat="45.16388" lon="6.4219">
        <ele>1444</ele>
        <time>2018-09-02T05:13:43Z</time>
      </trkpt>
      <trkpt lat="45.16394" lon="6.42181">
        <ele>1445</ele>
        <time>2018-09-02T05:13:49Z</time>
      </trkpt>
      <trkpt lat="45.16396" lon="6.42169">
        <ele>1445</ele>
        <time>2018-09-02T05:13:55Z</time>
      </trkpt>
      <trkpt lat="45.16399" lon="6.42156">
        <ele>1446</ele>
        <time>2018-09-02T05:14:01Z</time>
      </trkpt>
      <trkpt lat="45.16398" lon="6.42142">
        <ele>1446</ele>
        <time>2018-09-02T05:14:07Z</time>
      </trkpt>
      <trkpt lat="45.16394" lon="6.42125">
        <ele>1447</ele>
        <time>2018-09-02T05:14:13Z</time>
      </trkpt>
      <trkpt lat="45.16392" lon="6.42113">
        <ele>1448</ele>
        <time>2018-09-02T05:14:19Z</time>
      </trkpt>
      <trkpt lat="45.16388" lon="6.42098">
        <ele>1450</ele>
        <time>2018-09-02T05:14:25Z</time>
      </trkpt>
      <trkpt lat="45.16383" lon="6.42085">
        <ele>1452</ele>
        <time>2018-09-02T05:14:31Z</time>
      </trkpt>
      <trkpt lat="45.16379" lon="6.42071">
        <ele>1455</ele>
        <time>2018-09-02T05:14:37Z</time>
      </trkpt>
      <trkpt lat="45.16373" lon="6.42059">
        <ele>1457</ele>
        <time>2018-09-02T05:14:43Z</time>
      </trkpt>
      <trkpt lat="45.16368" lon="6.42046">
        <ele>1459</ele>
        <time>2018-09-02T05:14:49Z</time>
      </trkpt>
      <trkpt lat="45.1636" lon="6.42034">
        <ele>1460</ele>
        <time>2018-09-02T05:14:55Z</time>
      </trkpt>
      <trkpt lat="45.16354" lon="6.42022">
        <ele>1463</ele>
        <time>2018-09-02T05:15:01Z</time>
      </trkpt>
      <trkpt lat="45.16349" lon="6.42005">
        <ele>1465</ele>
        <time>2018-09-02T05:15:07Z</time>
      </trkpt>
      <trkpt lat="45.16343" lon="6.41995">
        <ele>1467</ele>
        <time>2018-09-02T05:15:13Z</time>
      </trkpt>
      <trkpt lat="45.16331" lon="6.41976">
        <ele>1468</ele>
        <time>2018-09-02T05:15:25Z</time>
      </trkpt>
      <trkpt lat="45.16326" lon="6.41965">
        <ele>1469</ele>
        <time>2018-09-02T05:15:31Z</time>
      </trkpt>
      <trkpt lat="45.16324" lon="6.41955">
        <ele>1469</ele>
        <time>2018-09-02T05:15:37Z</time>
      </trkpt>
      <trkpt lat="45.16318" lon="6.41945">
        <ele>1469</ele>
        <time>2018-09-02T05:15:43Z</time>
      </trkpt>
      <trkpt lat="45.1631" lon="6.41934">
        <ele>1469</ele>
        <time>2018-09-02T05:15:49Z</time>
      </trkpt>
      <trkpt lat="45.16299" lon="6.4193">
        <ele>1471</ele>
        <time>2018-09-02T05:15:55Z</time>
      </trkpt>
      <trkpt lat="45.1629" lon="6.41926">
        <ele>1473</ele>
        <time>2018-09-02T05:16:01Z</time>
      </trkpt>
      <trkpt lat="45.16272" lon="6.41913">
        <ele>1476</ele>
        <time>2018-09-02T05:16:13Z</time>
      </trkpt>
      <trkpt lat="45.16246" lon="6.41902">
        <ele>1482</ele>
        <time>2018-09-02T05:16:25Z</time>
      </trkpt>
      <trkpt lat="45.1624" lon="6.41896">
        <ele>1484</ele>
        <time>2018-09-02T05:16:31Z</time>
      </trkpt>
      <trkpt lat="45.16233" lon="6.41885">
        <ele>1486</ele>
        <time>2018-09-02T05:16:37Z</time>
      </trkpt>
      <trkpt lat="45.16231" lon="6.41871">
        <ele>1486</ele>
        <time>2018-09-02T05:16:43Z</time>
      </trkpt>
      <trkpt lat="45.16234" lon="6.41866">
        <ele>1485</ele>
        <time>2018-09-02T05:16:49Z</time>
      </trkpt>
      <trkpt lat="45.16232" lon="6.41856">
        <ele>1487</ele>
        <time>2018-09-02T05:16:55Z</time>
      </trkpt>
      <trkpt lat="45.16234" lon="6.41827">
        <ele>1489</ele>
        <time>2018-09-02T05:17:07Z</time>
      </trkpt>
      <trkpt lat="45.1624" lon="6.41815">
        <ele>1489</ele>
        <time>2018-09-02T05:17:13Z</time>
      </trkpt>
      <trkpt lat="45.16247" lon="6.41805">
        <ele>1489</ele>
        <time>2018-09-02T05:17:19Z</time>
      </trkpt>
      <trkpt lat="45.16249" lon="6.41793">
        <ele>1492</ele>
        <time>2018-09-02T05:17:25Z</time>
      </trkpt>
      <trkpt lat="45.16252" lon="6.41783">
        <ele>1493</ele>
        <time>2018-09-02T05:17:31Z</time>
      </trkpt>
      <trkpt lat="45.16261" lon="6.41764">
        <ele>1496</ele>
        <time>2018-09-02T05:17:43Z</time>
      </trkpt>
      <trkpt lat="45.16267" lon="6.41761">
        <ele>1496</ele>
        <time>2018-09-02T05:17:49Z</time>
      </trkpt>
      <trkpt lat="45.16265" lon="6.41742">
        <ele>1499</ele>
        <time>2018-09-02T05:18:02Z</time>
      </trkpt>
      <trkpt lat="45.16265" lon="6.41731">
        <ele>1500</ele>
        <time>2018-09-02T05:18:08Z</time>
      </trkpt>
      <trkpt lat="45.16272" lon="6.41721">
        <ele>1501</ele>
        <time>2018-09-02T05:18:14Z</time>
      </trkpt>
      <trkpt lat="45.16281" lon="6.41709">
        <ele>1504</ele>
        <time>2018-09-02T05:18:20Z</time>
      </trkpt>
      <trkpt lat="45.16276" lon="6.41685">
        <ele>1509</ele>
        <time>2018-09-02T05:18:26Z</time>
      </trkpt>
      <trkpt lat="45.16271" lon="6.41676">
        <ele>1512</ele>
        <time>2018-09-02T05:18:32Z</time>
      </trkpt>
      <trkpt lat="45.16269" lon="6.41667">
        <ele>1515</ele>
        <time>2018-09-02T05:18:38Z</time>
      </trkpt>
      <trkpt lat="45.16266" lon="6.41661">
        <ele>1516</ele>
        <time>2018-09-02T05:18:44Z</time>
      </trkpt>
      <trkpt lat="45.16265" lon="6.41656">
        <ele>1517</ele>
        <time>2018-09-02T05:18:56Z</time>
      </trkpt>
      <trkpt lat="45.16265" lon="6.41656">
        <ele>1517</ele>
        <time>2018-09-02T05:19:14Z</time>
      </trkpt>
      <trkpt lat="45.16265" lon="6.41656">
        <ele>1517</ele>
        <time>2018-09-02T05:19:20Z</time>
      </trkpt>
      <trkpt lat="45.16263" lon="6.41659">
        <ele>1517</ele>
        <time>2018-09-02T05:19:26Z</time>
      </trkpt>
      <trkpt lat="45.16256" lon="6.41666">
        <ele>1516</ele>
        <time>2018-09-02T05:19:32Z</time>
      </trkpt>
      <trkpt lat="45.16247" lon="6.41674">
        <ele>1515</ele>
        <time>2018-09-02T05:19:38Z</time>
      </trkpt>
      <trkpt lat="45.16234" lon="6.41683">
        <ele>1519</ele>
        <time>2018-09-02T05:19:44Z</time>
      </trkpt>
      <trkpt lat="45.16222" lon="6.41692">
        <ele>1522</ele>
        <time>2018-09-02T05:19:50Z</time>
      </trkpt>
      <trkpt lat="45.1621" lon="6.41702">
        <ele>1526</ele>
        <time>2018-09-02T05:19:56Z</time>
      </trkpt>
      <trkpt lat="45.16201" lon="6.41713">
        <ele>1528</ele>
        <time>2018-09-02T05:20:02Z</time>
      </trkpt>
      <trkpt lat="45.16196" lon="6.41724">
        <ele>1527</ele>
        <time>2018-09-02T05:20:08Z</time>
      </trkpt>
      <trkpt lat="45.16195" lon="6.41738">
        <ele>1524</ele>
        <time>2018-09-02T05:20:14Z</time>
      </trkpt>
      <trkpt lat="45.1619" lon="6.41755">
        <ele>1521</ele>
        <time>2018-09-02T05:20:20Z</time>
      </trkpt>
      <trkpt lat="45.16184" lon="6.41769">
        <ele>1519</ele>
        <time>2018-09-02T05:20:26Z</time>
      </trkpt>
      <trkpt lat="45.16177" lon="6.41786">
        <ele>1518</ele>
        <time>2018-09-02T05:20:32Z</time>
      </trkpt>
      <trkpt lat="45.16174" lon="6.41801">
        <ele>1515</ele>
        <time>2018-09-02T05:20:38Z</time>
      </trkpt>
      <trkpt lat="45.16176" lon="6.41829">
        <ele>1510</ele>
        <time>2018-09-02T05:20:50Z</time>
      </trkpt>
      <trkpt lat="45.16167" lon="6.41838">
        <ele>1512</ele>
        <time>2018-09-02T05:20:56Z</time>
      </trkpt>
      <trkpt lat="45.16157" lon="6.41844">
        <ele>1513</ele>
        <time>2018-09-02T05:21:01Z</time>
      </trkpt>
      <trkpt lat="45.1614" lon="6.41853">
        <ele>1513</ele>
        <time>2018-09-02T05:21:06Z</time>
      </trkpt>
      <trkpt lat="45.16131" lon="6.41852">
        <ele>1514</ele>
        <time>2018-09-02T05:21:12Z</time>
      </trkpt>
      <trkpt lat="45.16123" lon="6.41851">
        <ele>1515</ele>
        <time>2018-09-02T05:21:18Z</time>
      </trkpt>
      <trkpt lat="45.16113" lon="6.41855">
        <ele>1515</ele>
        <time>2018-09-02T05:21:24Z</time>
      </trkpt>
      <trkpt lat="45.16104" lon="6.41857">
        <ele>1515</ele>
        <time>2018-09-02T05:21:30Z</time>
      </trkpt>
      <trkpt lat="45.16083" lon="6.41862">
        <ele>1514</ele>
        <time>2018-09-02T05:21:42Z</time>
      </trkpt>
      <trkpt lat="45.16073" lon="6.4186">
        <ele>1516</ele>
        <time>2018-09-02T05:21:48Z</time>
      </trkpt>
      <trkpt lat="45.16061" lon="6.41865">
        <ele>1517</ele>
        <time>2018-09-02T05:21:54Z</time>
      </trkpt>
      <trkpt lat="45.1605" lon="6.41854">
        <ele>1521</ele>
        <time>2018-09-02T05:22:00Z</time>
      </trkpt>
      <trkpt lat="45.16038" lon="6.41854">
        <ele>1521</ele>
        <time>2018-09-02T05:22:06Z</time>
      </trkpt>
      <trkpt lat="45.16022" lon="6.41852">
        <ele>1522</ele>
        <time>2018-09-02T05:22:12Z</time>
      </trkpt>
      <trkpt lat="45.16003" lon="6.41858">
        <ele>1518</ele>
        <time>2018-09-02T05:22:18Z</time>
      </trkpt>
      <trkpt lat="45.15969" lon="6.41862">
        <ele>1520</ele>
        <time>2018-09-02T05:22:30Z</time>
      </trkpt>
      <trkpt lat="45.15953" lon="6.41865">
        <ele>1521</ele>
        <time>2018-09-02T05:22:36Z</time>
      </trkpt>
      <trkpt lat="45.1594" lon="6.4187">
        <ele>1521</ele>
        <time>2018-09-02T05:22:42Z</time>
      </trkpt>
      <trkpt lat="45.15923" lon="6.41878">
        <ele>1522</ele>
        <time>2018-09-02T05:22:48Z</time>
      </trkpt>
      <trkpt lat="45.15903" lon="6.41883">
        <ele>1523</ele>
        <time>2018-09-02T05:22:54Z</time>
      </trkpt>
      <trkpt lat="45.15887" lon="6.41876">
        <ele>1524</ele>
        <time>2018-09-02T05:23:00Z</time>
      </trkpt>
      <trkpt lat="45.15871" lon="6.41866">
        <ele>1526</ele>
        <time>2018-09-02T05:23:06Z</time>
      </trkpt>
      <trkpt lat="45.15854" lon="6.41863">
        <ele>1526</ele>
        <time>2018-09-02T05:23:12Z</time>
      </trkpt>
      <trkpt lat="45.15829" lon="6.41863">
        <ele>1526</ele>
        <time>2018-09-02T05:23:18Z</time>
      </trkpt>
      <trkpt lat="45.158" lon="6.4187">
        <ele>1524</ele>
        <time>2018-09-02T05:23:24Z</time>
      </trkpt>
      <trkpt lat="45.15772" lon="6.41879">
        <ele>1522</ele>
        <time>2018-09-02T05:23:30Z</time>
      </trkpt>
      <trkpt lat="45.15717" lon="6.41875">
        <ele>1523</ele>
        <time>2018-09-02T05:23:42Z</time>
      </trkpt>
      <trkpt lat="45.1568" lon="6.41873">
        <ele>1525</ele>
        <time>2018-09-02T05:23:48Z</time>
      </trkpt>
      <trkpt lat="45.15651" lon="6.41887">
        <ele>1524</ele>
        <time>2018-09-02T05:23:54Z</time>
      </trkpt>
      <trkpt lat="45.1562" lon="6.41904">
        <ele>1522</ele>
        <time>2018-09-02T05:24:00Z</time>
      </trkpt>
      <trkpt lat="45.15558" lon="6.41927">
        <ele>1517</ele>
        <time>2018-09-02T05:24:12Z</time>
      </trkpt>
      <trkpt lat="45.15527" lon="6.41939">
        <ele>1516</ele>
        <time>2018-09-02T05:24:18Z</time>
      </trkpt>
      <trkpt lat="45.15507" lon="6.41952">
        <ele>1516</ele>
        <time>2018-09-02T05:24:24Z</time>
      </trkpt>
      <trkpt lat="45.15499" lon="6.41964">
        <ele>1515</ele>
        <time>2018-09-02T05:24:30Z</time>
      </trkpt>
      <trkpt lat="45.15503" lon="6.4196">
        <ele>1515</ele>
        <time>2018-09-02T05:24:36Z</time>
      </trkpt>
      <trkpt lat="45.15513" lon="6.41956">
        <ele>1515</ele>
        <time>2018-09-02T05:24:42Z</time>
      </trkpt>
      <trkpt lat="45.15506" lon="6.41959">
        <ele>1515</ele>
        <time>2018-09-02T05:24:48Z</time>
      </trkpt>
      <trkpt lat="45.15491" lon="6.41963">
        <ele>1517</ele>
        <time>2018-09-02T05:24:54Z</time>
      </trkpt>
      <trkpt lat="45.1548" lon="6.41961">
        <ele>1519</ele>
        <time>2018-09-02T05:25:00Z</time>
      </trkpt>
      <trkpt lat="45.15466" lon="6.41957">
        <ele>1521</ele>
        <time>2018-09-02T05:25:06Z</time>
      </trkpt>
      <trkpt lat="45.15442" lon="6.41959">
        <ele>1523</ele>
        <time>2018-09-02T05:25:18Z</time>
      </trkpt>
      <trkpt lat="45.1542" lon="6.41956">
        <ele>1525</ele>
        <time>2018-09-02T05:25:30Z</time>
      </trkpt>
      <trkpt lat="45.15408" lon="6.41946">
        <ele>1528</ele>
        <time>2018-09-02T05:25:36Z</time>
      </trkpt>
      <trkpt lat="45.15391" lon="6.41936">
        <ele>1532</ele>
        <time>2018-09-02T05:25:42Z</time>
      </trkpt>
      <trkpt lat="45.15379" lon="6.41927">
        <ele>1535</ele>
        <time>2018-09-02T05:25:48Z</time>
      </trkpt>
      <trkpt lat="45.15367" lon="6.4193">
        <ele>1534</ele>
        <time>2018-09-02T05:25:54Z</time>
      </trkpt>
      <trkpt lat="45.15358" lon="6.41934">
        <ele>1533</ele>
        <time>2018-09-02T05:26:00Z</time>
      </trkpt>
      <trkpt lat="45.15341" lon="6.41933">
        <ele>1534</ele>
        <time>2018-09-02T05:26:06Z</time>
      </trkpt>
      <trkpt lat="45.1532" lon="6.41929">
        <ele>1535</ele>
        <time>2018-09-02T05:26:18Z</time>
      </trkpt>
      <trkpt lat="45.1531" lon="6.41931">
        <ele>1535</ele>
        <time>2018-09-02T05:26:24Z</time>
      </trkpt>
      <trkpt lat="45.15302" lon="6.41936">
        <ele>1535</ele>
        <time>2018-09-02T05:26:30Z</time>
      </trkpt>
      <trkpt lat="45.15285" lon="6.41947">
        <ele>1535</ele>
        <time>2018-09-02T05:26:36Z</time>
      </trkpt>
      <trkpt lat="45.15269" lon="6.41957">
        <ele>1536</ele>
        <time>2018-09-02T05:26:42Z</time>
      </trkpt>
      <trkpt lat="45.15255" lon="6.41971">
        <ele>1536</ele>
        <time>2018-09-02T05:26:48Z</time>
      </trkpt>
      <trkpt lat="45.15241" lon="6.41984">
        <ele>1537</ele>
        <time>2018-09-02T05:26:54Z</time>
      </trkpt>
      <trkpt lat="45.15228" lon="6.41986">
        <ele>1538</ele>
        <time>2018-09-02T05:27:00Z</time>
      </trkpt>
      <trkpt lat="45.1521" lon="6.41988">
        <ele>1538</ele>
        <time>2018-09-02T05:27:06Z</time>
      </trkpt>
      <trkpt lat="45.15184" lon="6.4201">
        <ele>1539</ele>
        <time>2018-09-02T05:27:18Z</time>
      </trkpt>
      <trkpt lat="45.15183" lon="6.42037">
        <ele>1538</ele>
        <time>2018-09-02T05:27:24Z</time>
      </trkpt>
      <trkpt lat="45.15199" lon="6.42052">
        <ele>1537</ele>
        <time>2018-09-02T05:27:30Z</time>
      </trkpt>
      <trkpt lat="45.15231" lon="6.42067">
        <ele>1536</ele>
        <time>2018-09-02T05:27:36Z</time>
      </trkpt>
      <trkpt lat="45.15265" lon="6.4208">
        <ele>1534</ele>
        <time>2018-09-02T05:27:42Z</time>
      </trkpt>
      <trkpt lat="45.15303" lon="6.42077">
        <ele>1529</ele>
        <time>2018-09-02T05:27:48Z</time>
      </trkpt>
      <trkpt lat="45.15339" lon="6.42074">
        <ele>1524</ele>
        <time>2018-09-02T05:27:54Z</time>
      </trkpt>
      <trkpt lat="45.1537" lon="6.42081">
        <ele>1520</ele>
        <time>2018-09-02T05:27:59Z</time>
      </trkpt>
      <trkpt lat="45.15397" lon="6.42095">
        <ele>1517</ele>
        <time>2018-09-02T05:28:05Z</time>
      </trkpt>
      <trkpt lat="45.15421" lon="6.42091">
        <ele>1513</ele>
        <time>2018-09-02T05:28:11Z</time>
      </trkpt>
      <trkpt lat="45.15431" lon="6.42093">
        <ele>1512</ele>
        <time>2018-09-02T05:28:17Z</time>
      </trkpt>
      <trkpt lat="45.15437" lon="6.42096">
        <ele>1511</ele>
        <time>2018-09-02T05:28:29Z</time>
      </trkpt>
      <trkpt lat="45.15443" lon="6.42125">
        <ele>1508</ele>
        <time>2018-09-02T05:28:35Z</time>
      </trkpt>
      <trkpt lat="45.15448" lon="6.42157">
        <ele>1507</ele>
        <time>2018-09-02T05:28:41Z</time>
      </trkpt>
      <trkpt lat="45.15455" lon="6.4217">
        <ele>1506</ele>
        <time>2018-09-02T05:28:47Z</time>
      </trkpt>
      <trkpt lat="45.15466" lon="6.42174">
        <ele>1505</ele>
        <time>2018-09-02T05:28:53Z</time>
      </trkpt>
      <trkpt lat="45.15488" lon="6.42189">
        <ele>1503</ele>
        <time>2018-09-02T05:28:59Z</time>
      </trkpt>
      <trkpt lat="45.15506" lon="6.4221">
        <ele>1501</ele>
        <time>2018-09-02T05:29:05Z</time>
      </trkpt>
      <trkpt lat="45.15537" lon="6.4221">
        <ele>1498</ele>
        <time>2018-09-02T05:29:11Z</time>
      </trkpt>
      <trkpt lat="45.15555" lon="6.42208">
        <ele>1497</ele>
        <time>2018-09-02T05:29:17Z</time>
      </trkpt>
      <trkpt lat="45.15557" lon="6.42228">
        <ele>1496</ele>
        <time>2018-09-02T05:29:23Z</time>
      </trkpt>
      <trkpt lat="45.15555" lon="6.4227">
        <ele>1499</ele>
        <time>2018-09-02T05:29:29Z</time>
      </trkpt>
      <trkpt lat="45.15556" lon="6.42302">
        <ele>1506</ele>
        <time>2018-09-02T05:29:35Z</time>
      </trkpt>
      <trkpt lat="45.15562" lon="6.42318">
        <ele>1512</ele>
        <time>2018-09-02T05:29:41Z</time>
      </trkpt>
      <trkpt lat="45.15571" lon="6.4233">
        <ele>1515</ele>
        <time>2018-09-02T05:29:47Z</time>
      </trkpt>
      <trkpt lat="45.15582" lon="6.42337">
        <ele>1516</ele>
        <time>2018-09-02T05:29:53Z</time>
      </trkpt>
      <trkpt lat="45.15593" lon="6.42345">
        <ele>1519</ele>
        <time>2018-09-02T05:29:59Z</time>
      </trkpt>
      <trkpt lat="45.15602" lon="6.42353">
        <ele>1519</ele>
        <time>2018-09-02T05:30:05Z</time>
      </trkpt>
      <trkpt lat="45.15615" lon="6.42362">
        <ele>1519</ele>
        <time>2018-09-02T05:30:11Z</time>
      </trkpt>
      <trkpt lat="45.15625" lon="6.42369">
        <ele>1521</ele>
        <time>2018-09-02T05:30:17Z</time>
      </trkpt>
      <trkpt lat="45.15637" lon="6.42377">
        <ele>1523</ele>
        <time>2018-09-02T05:30:23Z</time>
      </trkpt>
      <trkpt lat="45.15642" lon="6.4238">
        <ele>1524</ele>
        <time>2018-09-02T05:30:29Z</time>
      </trkpt>
      <trkpt lat="45.15644" lon="6.42382">
        <ele>1525</ele>
        <time>2018-09-02T05:30:41Z</time>
      </trkpt>
      <trkpt lat="45.15646" lon="6.42382">
        <ele>1525</ele>
        <time>2018-09-02T05:30:47Z</time>
      </trkpt>
      <trkpt lat="45.15659" lon="6.42387">
        <ele>1524</ele>
        <time>2018-09-02T05:30:53Z</time>
      </trkpt>
      <trkpt lat="45.15672" lon="6.42395">
        <ele>1523</ele>
        <time>2018-09-02T05:30:59Z</time>
      </trkpt>
      <trkpt lat="45.15679" lon="6.424">
        <ele>1522</ele>
        <time>2018-09-02T05:31:05Z</time>
      </trkpt>
      <trkpt lat="45.15687" lon="6.42409">
        <ele>1523</ele>
        <time>2018-09-02T05:31:11Z</time>
      </trkpt>
      <trkpt lat="45.15697" lon="6.42409">
        <ele>1521</ele>
        <time>2018-09-02T05:31:17Z</time>
      </trkpt>
      <trkpt lat="45.15708" lon="6.42403">
        <ele>1518</ele>
        <time>2018-09-02T05:31:23Z</time>
      </trkpt>
      <trkpt lat="45.15735" lon="6.42401">
        <ele>1519</ele>
        <time>2018-09-02T05:31:35Z</time>
      </trkpt>
      <trkpt lat="45.15739" lon="6.42411">
        <ele>1521</ele>
        <time>2018-09-02T05:31:41Z</time>
      </trkpt>
      <trkpt lat="45.15741" lon="6.42434">
        <ele>1526</ele>
        <time>2018-09-02T05:31:47Z</time>
      </trkpt>
      <trkpt lat="45.15746" lon="6.42452">
        <ele>1530</ele>
        <time>2018-09-02T05:31:53Z</time>
      </trkpt>
      <trkpt lat="45.1575" lon="6.42464">
        <ele>1532</ele>
        <time>2018-09-02T05:31:59Z</time>
      </trkpt>
      <trkpt lat="45.15756" lon="6.42474">
        <ele>1533</ele>
        <time>2018-09-02T05:32:05Z</time>
      </trkpt>
      <trkpt lat="45.1576" lon="6.42473">
        <ele>1533</ele>
        <time>2018-09-02T05:32:11Z</time>
      </trkpt>
      <trkpt lat="45.15761" lon="6.42458">
        <ele>1531</ele>
        <time>2018-09-02T05:32:17Z</time>
      </trkpt>
      <trkpt lat="45.15758" lon="6.42435">
        <ele>1528</ele>
        <time>2018-09-02T05:32:23Z</time>
      </trkpt>
      <trkpt lat="45.15749" lon="6.42429">
        <ele>1526</ele>
        <time>2018-09-02T05:32:29Z</time>
      </trkpt>
      <trkpt lat="45.15739" lon="6.42423">
        <ele>1524</ele>
        <time>2018-09-02T05:32:35Z</time>
      </trkpt>
      <trkpt lat="45.15734" lon="6.42408">
        <ele>1520</ele>
        <time>2018-09-02T05:32:41Z</time>
      </trkpt>
      <trkpt lat="45.1573" lon="6.42403">
        <ele>1518</ele>
        <time>2018-09-02T05:32:47Z</time>
      </trkpt>
      <trkpt lat="45.1573" lon="6.42401">
        <ele>1518</ele>
        <time>2018-09-02T05:32:53Z</time>
      </trkpt>
      <trkpt lat="45.1573" lon="6.42401">
        <ele>1518</ele>
        <time>2018-09-02T05:32:59Z</time>
      </trkpt>
      <trkpt lat="45.1573" lon="6.42401">
        <ele>1518</ele>
        <time>2018-09-02T05:33:05Z</time>
      </trkpt>
      <trkpt lat="45.1573" lon="6.42401">
        <ele>1518</ele>
        <time>2018-09-02T05:33:11Z</time>
      </trkpt>
      <trkpt lat="45.1574" lon="6.42419">
        <ele>1523</ele>
        <time>2018-09-02T05:33:17Z</time>
      </trkpt>
      <trkpt lat="45.15749" lon="6.42436">
        <ele>1527</ele>
        <time>2018-09-02T05:33:23Z</time>
      </trkpt>
      <trkpt lat="45.15754" lon="6.42455">
        <ele>1531</ele>
        <time>2018-09-02T05:33:29Z</time>
      </trkpt>
      <trkpt lat="45.15755" lon="6.42474">
        <ele>1533</ele>
        <time>2018-09-02T05:33:35Z</time>
      </trkpt>
      <trkpt lat="45.15762" lon="6.42492">
        <ele>1536</ele>
        <time>2018-09-02T05:33:41Z</time>
      </trkpt>
      <trkpt lat="45.15769" lon="6.42506">
        <ele>1537</ele>
        <time>2018-09-02T05:33:47Z</time>
      </trkpt>
      <trkpt lat="45.15777" lon="6.42523">
        <ele>1540</ele>
        <time>2018-09-02T05:33:53Z</time>
      </trkpt>
      <trkpt lat="45.15796" lon="6.42558">
        <ele>1539</ele>
        <time>2018-09-02T05:34:05Z</time>
      </trkpt>
      <trkpt lat="45.158" lon="6.42577">
        <ele>1539</ele>
        <time>2018-09-02T05:34:11Z</time>
      </trkpt>
      <trkpt lat="45.15801" lon="6.426">
        <ele>1543</ele>
        <time>2018-09-02T05:34:17Z</time>
      </trkpt>
      <trkpt lat="45.15806" lon="6.42615">
        <ele>1543</ele>
        <time>2018-09-02T05:34:23Z</time>
      </trkpt>
      <trkpt lat="45.15818" lon="6.42627">
        <ele>1540</ele>
        <time>2018-09-02T05:34:29Z</time>
      </trkpt>
      <trkpt lat="45.15826" lon="6.4264">
        <ele>1538</ele>
        <time>2018-09-02T05:34:35Z</time>
      </trkpt>
      <trkpt lat="45.15829" lon="6.42657">
        <ele>1540</ele>
        <time>2018-09-02T05:34:41Z</time>
      </trkpt>
      <trkpt lat="45.15829" lon="6.42672">
        <ele>1544</ele>
        <time>2018-09-02T05:34:47Z</time>
      </trkpt>
      <trkpt lat="45.15833" lon="6.42686">
        <ele>1546</ele>
        <time>2018-09-02T05:34:53Z</time>
      </trkpt>
      <trkpt lat="45.15839" lon="6.42698">
        <ele>1547</ele>
        <time>2018-09-02T05:34:59Z</time>
      </trkpt>
      <trkpt lat="45.15857" lon="6.42721">
        <ele>1544</ele>
        <time>2018-09-02T05:35:11Z</time>
      </trkpt>
      <trkpt lat="45.15859" lon="6.4274">
        <ele>1546</ele>
        <time>2018-09-02T05:35:17Z</time>
      </trkpt>
      <trkpt lat="45.15865" lon="6.42751">
        <ele>1546</ele>
        <time>2018-09-02T05:35:23Z</time>
      </trkpt>
      <trkpt lat="45.15874" lon="6.42777">
        <ele>1549</ele>
        <time>2018-09-02T05:35:35Z</time>
      </trkpt>
      <trkpt lat="45.15878" lon="6.428">
        <ele>1551</ele>
        <time>2018-09-02T05:35:47Z</time>
      </trkpt>
      <trkpt lat="45.15876" lon="6.42811">
        <ele>1553</ele>
        <time>2018-09-02T05:35:53Z</time>
      </trkpt>
      <trkpt lat="45.15869" lon="6.42824">
        <ele>1556</ele>
        <time>2018-09-02T05:35:59Z</time>
      </trkpt>
      <trkpt lat="45.1586" lon="6.42826">
        <ele>1560</ele>
        <time>2018-09-02T05:36:05Z</time>
      </trkpt>
      <trkpt lat="45.15854" lon="6.4282">
        <ele>1561</ele>
        <time>2018-09-02T05:36:11Z</time>
      </trkpt>
      <trkpt lat="45.15849" lon="6.42809">
        <ele>1562</ele>
        <time>2018-09-02T05:36:17Z</time>
      </trkpt>
      <trkpt lat="45.15847" lon="6.42798">
        <ele>1561</ele>
        <time>2018-09-02T05:36:23Z</time>
      </trkpt>
      <trkpt lat="45.15844" lon="6.42782">
        <ele>1561</ele>
        <time>2018-09-02T05:36:29Z</time>
      </trkpt>
      <trkpt lat="45.15827" lon="6.4277">
        <ele>1567</ele>
        <time>2018-09-02T05:36:41Z</time>
      </trkpt>
      <trkpt lat="45.1582" lon="6.42774">
        <ele>1571</ele>
        <time>2018-09-02T05:36:47Z</time>
      </trkpt>
      <trkpt lat="45.1582" lon="6.42785">
        <ele>1573</ele>
        <time>2018-09-02T05:36:53Z</time>
      </trkpt>
      <trkpt lat="45.15821" lon="6.42796">
        <ele>1573</ele>
        <time>2018-09-02T05:36:59Z</time>
      </trkpt>
      <trkpt lat="45.15823" lon="6.42806">
        <ele>1573</ele>
        <time>2018-09-02T05:37:05Z</time>
      </trkpt>
      <trkpt lat="45.15824" lon="6.42818">
        <ele>1574</ele>
        <time>2018-09-02T05:37:11Z</time>
      </trkpt>
      <trkpt lat="45.15826" lon="6.42832">
        <ele>1573</ele>
        <time>2018-09-02T05:37:17Z</time>
      </trkpt>
      <trkpt lat="45.15827" lon="6.42856">
        <ele>1573</ele>
        <time>2018-09-02T05:37:29Z</time>
      </trkpt>
      <trkpt lat="45.15828" lon="6.42869">
        <ele>1574</ele>
        <time>2018-09-02T05:37:35Z</time>
      </trkpt>
      <trkpt lat="45.15831" lon="6.4288">
        <ele>1573</ele>
        <time>2018-09-02T05:37:41Z</time>
      </trkpt>
      <trkpt lat="45.15834" lon="6.42892">
        <ele>1574</ele>
        <time>2018-09-02T05:37:47Z</time>
      </trkpt>
      <trkpt lat="45.15832" lon="6.42905">
        <ele>1576</ele>
        <time>2018-09-02T05:37:53Z</time>
      </trkpt>
      <trkpt lat="45.15833" lon="6.42913">
        <ele>1576</ele>
        <time>2018-09-02T05:37:59Z</time>
      </trkpt>
      <trkpt lat="45.15833" lon="6.42922">
        <ele>1578</ele>
        <time>2018-09-02T05:38:05Z</time>
      </trkpt>
      <trkpt lat="45.1583" lon="6.42941">
        <ele>1584</ele>
        <time>2018-09-02T05:38:11Z</time>
      </trkpt>
      <trkpt lat="45.15832" lon="6.42951">
        <ele>1585</ele>
        <time>2018-09-02T05:38:17Z</time>
      </trkpt>
      <trkpt lat="45.1583" lon="6.42961">
        <ele>1588</ele>
        <time>2018-09-02T05:38:23Z</time>
      </trkpt>
      <trkpt lat="45.15829" lon="6.4297">
        <ele>1590</ele>
        <time>2018-09-02T05:38:29Z</time>
      </trkpt>
      <trkpt lat="45.15828" lon="6.42977">
        <ele>1592</ele>
        <time>2018-09-02T05:38:35Z</time>
      </trkpt>
      <trkpt lat="45.15826" lon="6.42984">
        <ele>1594</ele>
        <time>2018-09-02T05:38:41Z</time>
      </trkpt>
      <trkpt lat="45.15823" lon="6.42999">
        <ele>1597</ele>
        <time>2018-09-02T05:38:53Z</time>
      </trkpt>
      <trkpt lat="45.15825" lon="6.4301">
        <ele>1598</ele>
        <time>2018-09-02T05:38:59Z</time>
      </trkpt>
      <trkpt lat="45.15828" lon="6.43023">
        <ele>1598</ele>
        <time>2018-09-02T05:39:05Z</time>
      </trkpt>
      <trkpt lat="45.15826" lon="6.43046">
        <ele>1602</ele>
        <time>2018-09-02T05:39:17Z</time>
      </trkpt>
      <trkpt lat="45.15829" lon="6.43055">
        <ele>1603</ele>
        <time>2018-09-02T05:39:23Z</time>
      </trkpt>
      <trkpt lat="45.15837" lon="6.43067">
        <ele>1601</ele>
        <time>2018-09-02T05:39:29Z</time>
      </trkpt>
      <trkpt lat="45.15836" lon="6.43077">
        <ele>1603</ele>
        <time>2018-09-02T05:39:35Z</time>
      </trkpt>
      <trkpt lat="45.15824" lon="6.43096">
        <ele>1607</ele>
        <time>2018-09-02T05:39:47Z</time>
      </trkpt>
      <trkpt lat="45.15817" lon="6.431">
        <ele>1609</ele>
        <time>2018-09-02T05:39:53Z</time>
      </trkpt>
      <trkpt lat="45.15821" lon="6.43124">
        <ele>1608</ele>
        <time>2018-09-02T05:39:59Z</time>
      </trkpt>
      <trkpt lat="45.15821" lon="6.43141">
        <ele>1607</ele>
        <time>2018-09-02T05:40:05Z</time>
      </trkpt>
      <trkpt lat="45.15814" lon="6.4315">
        <ele>1608</ele>
        <time>2018-09-02T05:40:11Z</time>
      </trkpt>
      <trkpt lat="45.1581" lon="6.43159">
        <ele>1608</ele>
        <time>2018-09-02T05:40:17Z</time>
      </trkpt>
      <trkpt lat="45.15806" lon="6.43168">
        <ele>1608</ele>
        <time>2018-09-02T05:40:22Z</time>
      </trkpt>
      <trkpt lat="45.15806" lon="6.43184">
        <ele>1609</ele>
        <time>2018-09-02T05:40:28Z</time>
      </trkpt>
      <trkpt lat="45.15805" lon="6.43195">
        <ele>1610</ele>
        <time>2018-09-02T05:40:34Z</time>
      </trkpt>
      <trkpt lat="45.15801" lon="6.432">
        <ele>1613</ele>
        <time>2018-09-02T05:40:40Z</time>
      </trkpt>
      <trkpt lat="45.15795" lon="6.43218">
        <ele>1617</ele>
        <time>2018-09-02T05:40:52Z</time>
      </trkpt>
      <trkpt lat="45.15795" lon="6.43231">
        <ele>1619</ele>
        <time>2018-09-02T05:40:58Z</time>
      </trkpt>
      <trkpt lat="45.15802" lon="6.43266">
        <ele>1619</ele>
        <time>2018-09-02T05:41:10Z</time>
      </trkpt>
      <trkpt lat="45.15802" lon="6.43278">
        <ele>1620</ele>
        <time>2018-09-02T05:41:16Z</time>
      </trkpt>
      <trkpt lat="45.15808" lon="6.43293">
        <ele>1620</ele>
        <time>2018-09-02T05:41:22Z</time>
      </trkpt>
      <trkpt lat="45.15805" lon="6.43306">
        <ele>1623</ele>
        <time>2018-09-02T05:41:28Z</time>
      </trkpt>
      <trkpt lat="45.15802" lon="6.43323">
        <ele>1627</ele>
        <time>2018-09-02T05:41:34Z</time>
      </trkpt>
      <trkpt lat="45.15798" lon="6.43335">
        <ele>1631</ele>
        <time>2018-09-02T05:41:40Z</time>
      </trkpt>
      <trkpt lat="45.15798" lon="6.43347">
        <ele>1632</ele>
        <time>2018-09-02T05:41:46Z</time>
      </trkpt>
      <trkpt lat="45.158" lon="6.43359">
        <ele>1632</ele>
        <time>2018-09-02T05:41:52Z</time>
      </trkpt>
      <trkpt lat="45.15801" lon="6.43372">
        <ele>1634</ele>
        <time>2018-09-02T05:41:58Z</time>
      </trkpt>
      <trkpt lat="45.15798" lon="6.43386">
        <ele>1636</ele>
        <time>2018-09-02T05:42:04Z</time>
      </trkpt>
      <trkpt lat="45.15795" lon="6.43397">
        <ele>1638</ele>
        <time>2018-09-02T05:42:10Z</time>
      </trkpt>
      <trkpt lat="45.15797" lon="6.43402">
        <ele>1638</ele>
        <time>2018-09-02T05:42:16Z</time>
      </trkpt>
      <trkpt lat="45.15799" lon="6.43403">
        <ele>1637</ele>
        <time>2018-09-02T05:42:22Z</time>
      </trkpt>
      <trkpt lat="45.158" lon="6.43404">
        <ele>1637</ele>
        <time>2018-09-02T05:42:28Z</time>
      </trkpt>
      <trkpt lat="45.158" lon="6.43406">
        <ele>1637</ele>
        <time>2018-09-02T05:42:34Z</time>
      </trkpt>
      <trkpt lat="45.158" lon="6.43406">
        <ele>1637</ele>
        <time>2018-09-02T05:42:40Z</time>
      </trkpt>
      <trkpt lat="45.15796" lon="6.4341">
        <ele>1639</ele>
        <time>2018-09-02T05:42:46Z</time>
      </trkpt>
      <trkpt lat="45.15793" lon="6.43424">
        <ele>1642</ele>
        <time>2018-09-02T05:42:52Z</time>
      </trkpt>
      <trkpt lat="45.1579" lon="6.43438">
        <ele>1644</ele>
        <time>2018-09-02T05:42:58Z</time>
      </trkpt>
      <trkpt lat="45.15782" lon="6.43458">
        <ele>1647</ele>
        <time>2018-09-02T05:43:10Z</time>
      </trkpt>
      <trkpt lat="45.15777" lon="6.43468">
        <ele>1650</ele>
        <time>2018-09-02T05:43:16Z</time>
      </trkpt>
      <trkpt lat="45.15765" lon="6.43489">
        <ele>1655</ele>
        <time>2018-09-02T05:43:28Z</time>
      </trkpt>
      <trkpt lat="45.1576" lon="6.43497">
        <ele>1657</ele>
        <time>2018-09-02T05:43:34Z</time>
      </trkpt>
      <trkpt lat="45.15761" lon="6.43505">
        <ele>1656</ele>
        <time>2018-09-02T05:43:40Z</time>
      </trkpt>
      <trkpt lat="45.15761" lon="6.4351">
        <ele>1655</ele>
        <time>2018-09-02T05:43:46Z</time>
      </trkpt>
      <trkpt lat="45.15757" lon="6.43516">
        <ele>1657</ele>
        <time>2018-09-02T05:43:52Z</time>
      </trkpt>
      <trkpt lat="45.15756" lon="6.43522">
        <ele>1656</ele>
        <time>2018-09-02T05:43:58Z</time>
      </trkpt>
      <trkpt lat="45.1575" lon="6.43538">
        <ele>1657</ele>
        <time>2018-09-02T05:44:04Z</time>
      </trkpt>
      <trkpt lat="45.15753" lon="6.43538">
        <ele>1656</ele>
        <time>2018-09-02T05:44:10Z</time>
      </trkpt>
      <trkpt lat="45.15752" lon="6.4354">
        <ele>1656</ele>
        <time>2018-09-02T05:44:16Z</time>
      </trkpt>
      <trkpt lat="45.15749" lon="6.43555">
        <ele>1655</ele>
        <time>2018-09-02T05:44:28Z</time>
      </trkpt>
      <trkpt lat="45.15749" lon="6.43576">
        <ele>1654</ele>
        <time>2018-09-02T05:44:41Z</time>
      </trkpt>
      <trkpt lat="45.15747" lon="6.43589">
        <ele>1654</ele>
        <time>2018-09-02T05:44:47Z</time>
      </trkpt>
      <trkpt lat="45.15736" lon="6.43601">
        <ele>1659</ele>
        <time>2018-09-02T05:44:53Z</time>
      </trkpt>
      <trkpt lat="45.15723" lon="6.43612">
        <ele>1664</ele>
        <time>2018-09-02T05:44:59Z</time>
      </trkpt>
      <trkpt lat="45.15719" lon="6.43624">
        <ele>1667</ele>
        <time>2018-09-02T05:45:05Z</time>
      </trkpt>
      <trkpt lat="45.15715" lon="6.43635">
        <ele>1670</ele>
        <time>2018-09-02T05:45:11Z</time>
      </trkpt>
      <trkpt lat="45.1571" lon="6.43641">
        <ele>1673</ele>
        <time>2018-09-02T05:45:17Z</time>
      </trkpt>
      <trkpt lat="45.15708" lon="6.43649">
        <ele>1674</ele>
        <time>2018-09-02T05:45:23Z</time>
      </trkpt>
      <trkpt lat="45.15708" lon="6.43656">
        <ele>1674</ele>
        <time>2018-09-02T05:45:29Z</time>
      </trkpt>
      <trkpt lat="45.15705" lon="6.43662">
        <ele>1676</ele>
        <time>2018-09-02T05:45:35Z</time>
      </trkpt>
      <trkpt lat="45.15707" lon="6.43668">
        <ele>1675</ele>
        <time>2018-09-02T05:45:41Z</time>
      </trkpt>
      <trkpt lat="45.15708" lon="6.43678">
        <ele>1674</ele>
        <time>2018-09-02T05:45:47Z</time>
      </trkpt>
      <trkpt lat="45.15706" lon="6.43689">
        <ele>1674</ele>
        <time>2018-09-02T05:45:53Z</time>
      </trkpt>
      <trkpt lat="45.15704" lon="6.43702">
        <ele>1673</ele>
        <time>2018-09-02T05:45:59Z</time>
      </trkpt>
      <trkpt lat="45.15699" lon="6.43725">
        <ele>1673</ele>
        <time>2018-09-02T05:46:11Z</time>
      </trkpt>
      <trkpt lat="45.15699" lon="6.43738">
        <ele>1671</ele>
        <time>2018-09-02T05:46:17Z</time>
      </trkpt>
      <trkpt lat="45.15695" lon="6.43752">
        <ele>1670</ele>
        <time>2018-09-02T05:46:23Z</time>
      </trkpt>
      <trkpt lat="45.15688" lon="6.43766">
        <ele>1672</ele>
        <time>2018-09-02T05:46:29Z</time>
      </trkpt>
      <trkpt lat="45.15676" lon="6.43781">
        <ele>1676</ele>
        <time>2018-09-02T05:46:35Z</time>
      </trkpt>
      <trkpt lat="45.15666" lon="6.43795">
        <ele>1680</ele>
        <time>2018-09-02T05:46:41Z</time>
      </trkpt>
      <trkpt lat="45.15657" lon="6.43804">
        <ele>1684</ele>
        <time>2018-09-02T05:46:47Z</time>
      </trkpt>
      <trkpt lat="45.15649" lon="6.43811">
        <ele>1687</ele>
        <time>2018-09-02T05:46:53Z</time>
      </trkpt>
      <trkpt lat="45.15643" lon="6.43826">
        <ele>1688</ele>
        <time>2018-09-02T05:46:59Z</time>
      </trkpt>
      <trkpt lat="45.15637" lon="6.43837">
        <ele>1690</ele>
        <time>2018-09-02T05:47:05Z</time>
      </trkpt>
      <trkpt lat="45.15626" lon="6.43846">
        <ele>1693</ele>
        <time>2018-09-02T05:47:11Z</time>
      </trkpt>
      <trkpt lat="45.15618" lon="6.43856">
        <ele>1694</ele>
        <time>2018-09-02T05:47:17Z</time>
      </trkpt>
      <trkpt lat="45.15615" lon="6.4386">
        <ele>1695</ele>
        <time>2018-09-02T05:47:23Z</time>
      </trkpt>
      <trkpt lat="45.15608" lon="6.43866">
        <ele>1695</ele>
        <time>2018-09-02T05:47:29Z</time>
      </trkpt>
      <trkpt lat="45.156" lon="6.43867">
        <ele>1696</ele>
        <time>2018-09-02T05:47:35Z</time>
      </trkpt>
      <trkpt lat="45.15594" lon="6.43868">
        <ele>1697</ele>
        <time>2018-09-02T05:47:41Z</time>
      </trkpt>
      <trkpt lat="45.15587" lon="6.43877">
        <ele>1697</ele>
        <time>2018-09-02T05:47:47Z</time>
      </trkpt>
      <trkpt lat="45.15578" lon="6.43884">
        <ele>1698</ele>
        <time>2018-09-02T05:47:53Z</time>
      </trkpt>
      <trkpt lat="45.15566" lon="6.43893">
        <ele>1699</ele>
        <time>2018-09-02T05:47:59Z</time>
      </trkpt>
      <trkpt lat="45.15553" lon="6.43908">
        <ele>1699</ele>
        <time>2018-09-02T05:48:11Z</time>
      </trkpt>
      <trkpt lat="45.15543" lon="6.43911">
        <ele>1702</ele>
        <time>2018-09-02T05:48:17Z</time>
      </trkpt>
      <trkpt lat="45.15537" lon="6.4392">
        <ele>1703</ele>
        <time>2018-09-02T05:48:23Z</time>
      </trkpt>
      <trkpt lat="45.15532" lon="6.43924">
        <ele>1704</ele>
        <time>2018-09-02T05:48:29Z</time>
      </trkpt>
      <trkpt lat="45.15523" lon="6.43932">
        <ele>1706</ele>
        <time>2018-09-02T05:48:41Z</time>
      </trkpt>
      <trkpt lat="45.15516" lon="6.43948">
        <ele>1708</ele>
        <time>2018-09-02T05:48:47Z</time>
      </trkpt>
      <trkpt lat="45.15511" lon="6.4396">
        <ele>1709</ele>
        <time>2018-09-02T05:48:53Z</time>
      </trkpt>
      <trkpt lat="45.15507" lon="6.4397">
        <ele>1710</ele>
        <time>2018-09-02T05:48:59Z</time>
      </trkpt>
      <trkpt lat="45.15498" lon="6.43983">
        <ele>1713</ele>
        <time>2018-09-02T05:49:05Z</time>
      </trkpt>
      <trkpt lat="45.15493" lon="6.43997">
        <ele>1713</ele>
        <time>2018-09-02T05:49:11Z</time>
      </trkpt>
      <trkpt lat="45.15489" lon="6.44003">
        <ele>1715</ele>
        <time>2018-09-02T05:49:17Z</time>
      </trkpt>
      <trkpt lat="45.15486" lon="6.44012">
        <ele>1715</ele>
        <time>2018-09-02T05:49:23Z</time>
      </trkpt>
      <trkpt lat="45.15482" lon="6.4402">
        <ele>1716</ele>
        <time>2018-09-02T05:49:29Z</time>
      </trkpt>
      <trkpt lat="45.15477" lon="6.44023">
        <ele>1718</ele>
        <time>2018-09-02T05:49:35Z</time>
      </trkpt>
      <trkpt lat="45.15468" lon="6.44034">
        <ele>1722</ele>
        <time>2018-09-02T05:49:47Z</time>
      </trkpt>
      <trkpt lat="45.15464" lon="6.44045">
        <ele>1722</ele>
        <time>2018-09-02T05:49:53Z</time>
      </trkpt>
      <trkpt lat="45.15454" lon="6.44062">
        <ele>1724</ele>
        <time>2018-09-02T05:50:05Z</time>
      </trkpt>
      <trkpt lat="45.15449" lon="6.44067">
        <ele>1725</ele>
        <time>2018-09-02T05:50:11Z</time>
      </trkpt>
      <trkpt lat="45.15442" lon="6.44069">
        <ele>1728</ele>
        <time>2018-09-02T05:50:17Z</time>
      </trkpt>
      <trkpt lat="45.15434" lon="6.44072">
        <ele>1731</ele>
        <time>2018-09-02T05:50:23Z</time>
      </trkpt>
      <trkpt lat="45.15428" lon="6.44072">
        <ele>1734</ele>
        <time>2018-09-02T05:50:29Z</time>
      </trkpt>
      <trkpt lat="45.15421" lon="6.44078">
        <ele>1735</ele>
        <time>2018-09-02T05:50:35Z</time>
      </trkpt>
      <trkpt lat="45.15416" lon="6.44085">
        <ele>1735</ele>
        <time>2018-09-02T05:50:41Z</time>
      </trkpt>
      <trkpt lat="45.15407" lon="6.44099">
        <ele>1733</ele>
        <time>2018-09-02T05:50:53Z</time>
      </trkpt>
      <trkpt lat="45.15401" lon="6.44113">
        <ele>1730</ele>
        <time>2018-09-02T05:50:59Z</time>
      </trkpt>
      <trkpt lat="45.15397" lon="6.44127">
        <ele>1728</ele>
        <time>2018-09-02T05:51:05Z</time>
      </trkpt>
      <trkpt lat="45.15392" lon="6.44138">
        <ele>1727</ele>
        <time>2018-09-02T05:51:11Z</time>
      </trkpt>
      <trkpt lat="45.15382" lon="6.44163">
        <ele>1727</ele>
        <time>2018-09-02T05:51:23Z</time>
      </trkpt>
      <trkpt lat="45.15379" lon="6.44171">
        <ele>1726</ele>
        <time>2018-09-02T05:51:30Z</time>
      </trkpt>
      <trkpt lat="45.15377" lon="6.44181">
        <ele>1726</ele>
        <time>2018-09-02T05:51:35Z</time>
      </trkpt>
      <trkpt lat="45.15374" lon="6.44191">
        <ele>1726</ele>
        <time>2018-09-02T05:51:41Z</time>
      </trkpt>
      <trkpt lat="45.15369" lon="6.44209">
        <ele>1726</ele>
        <time>2018-09-02T05:51:47Z</time>
      </trkpt>
      <trkpt lat="45.15365" lon="6.44233">
        <ele>1727</ele>
        <time>2018-09-02T05:51:53Z</time>
      </trkpt>
      <trkpt lat="45.15358" lon="6.44261">
        <ele>1729</ele>
        <time>2018-09-02T05:52:05Z</time>
      </trkpt>
      <trkpt lat="45.15354" lon="6.44272">
        <ele>1731</ele>
        <time>2018-09-02T05:52:11Z</time>
      </trkpt>
      <trkpt lat="45.15348" lon="6.44284">
        <ele>1732</ele>
        <time>2018-09-02T05:52:17Z</time>
      </trkpt>
      <trkpt lat="45.15343" lon="6.44297">
        <ele>1733</ele>
        <time>2018-09-02T05:52:23Z</time>
      </trkpt>
      <trkpt lat="45.15338" lon="6.4431">
        <ele>1734</ele>
        <time>2018-09-02T05:52:29Z</time>
      </trkpt>
      <trkpt lat="45.15331" lon="6.44324">
        <ele>1735</ele>
        <time>2018-09-02T05:52:35Z</time>
      </trkpt>
      <trkpt lat="45.15323" lon="6.44338">
        <ele>1736</ele>
        <time>2018-09-02T05:52:41Z</time>
      </trkpt>
      <trkpt lat="45.15314" lon="6.44362">
        <ele>1738</ele>
        <time>2018-09-02T05:52:53Z</time>
      </trkpt>
      <trkpt lat="45.15307" lon="6.44375">
        <ele>1740</ele>
        <time>2018-09-02T05:52:59Z</time>
      </trkpt>
      <trkpt lat="45.15301" lon="6.44391">
        <ele>1740</ele>
        <time>2018-09-02T05:53:05Z</time>
      </trkpt>
      <trkpt lat="45.15296" lon="6.44405">
        <ele>1740</ele>
        <time>2018-09-02T05:53:11Z</time>
      </trkpt>
      <trkpt lat="45.15289" lon="6.4442">
        <ele>1740</ele>
        <time>2018-09-02T05:53:17Z</time>
      </trkpt>
      <trkpt lat="45.15281" lon="6.44433">
        <ele>1740</ele>
        <time>2018-09-02T05:53:23Z</time>
      </trkpt>
      <trkpt lat="45.15272" lon="6.44447">
        <ele>1740</ele>
        <time>2018-09-02T05:53:29Z</time>
      </trkpt>
      <trkpt lat="45.15252" lon="6.44473">
        <ele>1742</ele>
        <time>2018-09-02T05:53:41Z</time>
      </trkpt>
      <trkpt lat="45.15243" lon="6.44485">
        <ele>1742</ele>
        <time>2018-09-02T05:53:47Z</time>
      </trkpt>
      <trkpt lat="45.15233" lon="6.44495">
        <ele>1743</ele>
        <time>2018-09-02T05:53:53Z</time>
      </trkpt>
      <trkpt lat="45.15226" lon="6.44507">
        <ele>1744</ele>
        <time>2018-09-02T05:53:59Z</time>
      </trkpt>
      <trkpt lat="45.15216" lon="6.44517">
        <ele>1745</ele>
        <time>2018-09-02T05:54:05Z</time>
      </trkpt>
      <trkpt lat="45.15207" lon="6.44528">
        <ele>1746</ele>
        <time>2018-09-02T05:54:11Z</time>
      </trkpt>
      <trkpt lat="45.15196" lon="6.44538">
        <ele>1748</ele>
        <time>2018-09-02T05:54:17Z</time>
      </trkpt>
      <trkpt lat="45.15179" lon="6.44555">
        <ele>1750</ele>
        <time>2018-09-02T05:54:29Z</time>
      </trkpt>
      <trkpt lat="45.15178" lon="6.44561">
        <ele>1751</ele>
        <time>2018-09-02T05:54:36Z</time>
      </trkpt>
      <trkpt lat="45.15175" lon="6.44572">
        <ele>1751</ele>
        <time>2018-09-02T05:54:41Z</time>
      </trkpt>
      <trkpt lat="45.15185" lon="6.44593">
        <ele>1752</ele>
        <time>2018-09-02T05:54:53Z</time>
      </trkpt>
      <trkpt lat="45.15198" lon="6.44593">
        <ele>1752</ele>
        <time>2018-09-02T05:54:59Z</time>
      </trkpt>
      <trkpt lat="45.15214" lon="6.44591">
        <ele>1750</ele>
        <time>2018-09-02T05:55:05Z</time>
      </trkpt>
      <trkpt lat="45.15226" lon="6.44588">
        <ele>1749</ele>
        <time>2018-09-02T05:55:11Z</time>
      </trkpt>
      <trkpt lat="45.15235" lon="6.44581">
        <ele>1747</ele>
        <time>2018-09-02T05:55:17Z</time>
      </trkpt>
      <trkpt lat="45.15247" lon="6.4458">
        <ele>1746</ele>
        <time>2018-09-02T05:55:23Z</time>
      </trkpt>
      <trkpt lat="45.1526" lon="6.44582">
        <ele>1746</ele>
        <time>2018-09-02T05:55:29Z</time>
      </trkpt>
      <trkpt lat="45.15278" lon="6.44584">
        <ele>1747</ele>
        <time>2018-09-02T05:55:35Z</time>
      </trkpt>
      <trkpt lat="45.15289" lon="6.44581">
        <ele>1746</ele>
        <time>2018-09-02T05:55:41Z</time>
      </trkpt>
      <trkpt lat="45.15295" lon="6.44575">
        <ele>1745</ele>
        <time>2018-09-02T05:55:47Z</time>
      </trkpt>
      <trkpt lat="45.15304" lon="6.44567">
        <ele>1743</ele>
        <time>2018-09-02T05:55:53Z</time>
      </trkpt>
      <trkpt lat="45.15322" lon="6.44564">
        <ele>1743</ele>
        <time>2018-09-02T05:55:59Z</time>
      </trkpt>
      <trkpt lat="45.1534" lon="6.4456">
        <ele>1743</ele>
        <time>2018-09-02T05:56:06Z</time>
      </trkpt>
      <trkpt lat="45.15365" lon="6.44544">
        <ele>1740</ele>
        <time>2018-09-02T05:56:12Z</time>
      </trkpt>
      <trkpt lat="45.15386" lon="6.44527">
        <ele>1736</ele>
        <time>2018-09-02T05:56:18Z</time>
      </trkpt>
      <trkpt lat="45.15406" lon="6.44507">
        <ele>1735</ele>
        <time>2018-09-02T05:56:24Z</time>
      </trkpt>
      <trkpt lat="45.15432" lon="6.44475">
        <ele>1733</ele>
        <time>2018-09-02T05:56:30Z</time>
      </trkpt>
      <trkpt lat="45.15461" lon="6.44443">
        <ele>1733</ele>
        <time>2018-09-02T05:56:36Z</time>
      </trkpt>
      <trkpt lat="45.15491" lon="6.44398">
        <ele>1729</ele>
        <time>2018-09-02T05:56:48Z</time>
      </trkpt>
      <trkpt lat="45.15505" lon="6.44386">
        <ele>1729</ele>
        <time>2018-09-02T05:56:54Z</time>
      </trkpt>
      <trkpt lat="45.15525" lon="6.4438">
        <ele>1733</ele>
        <time>2018-09-02T05:57:00Z</time>
      </trkpt>
      <trkpt lat="45.15543" lon="6.44374">
        <ele>1734</ele>
        <time>2018-09-02T05:57:06Z</time>
      </trkpt>
      <trkpt lat="45.15556" lon="6.44366">
        <ele>1735</ele>
        <time>2018-09-02T05:57:12Z</time>
      </trkpt>
      <trkpt lat="45.15576" lon="6.44351">
        <ele>1732</ele>
        <time>2018-09-02T05:57:18Z</time>
      </trkpt>
      <trkpt lat="45.15594" lon="6.44334">
        <ele>1730</ele>
        <time>2018-09-02T05:57:24Z</time>
      </trkpt>
      <trkpt lat="45.15613" lon="6.44314">
        <ele>1731</ele>
        <time>2018-09-02T05:57:30Z</time>
      </trkpt>
      <trkpt lat="45.15661" lon="6.44283">
        <ele>1731</ele>
        <time>2018-09-02T05:57:42Z</time>
      </trkpt>
      <trkpt lat="45.1568" lon="6.44266">
        <ele>1728</ele>
        <time>2018-09-02T05:57:48Z</time>
      </trkpt>
      <trkpt lat="45.15699" lon="6.44255">
        <ele>1727</ele>
        <time>2018-09-02T05:57:54Z</time>
      </trkpt>
      <trkpt lat="45.15716" lon="6.4425">
        <ele>1726</ele>
        <time>2018-09-02T05:58:00Z</time>
      </trkpt>
      <trkpt lat="45.15735" lon="6.44244">
        <ele>1726</ele>
        <time>2018-09-02T05:58:06Z</time>
      </trkpt>
      <trkpt lat="45.1576" lon="6.44233">
        <ele>1725</ele>
        <time>2018-09-02T05:58:12Z</time>
      </trkpt>
      <trkpt lat="45.15779" lon="6.44222">
        <ele>1725</ele>
        <time>2018-09-02T05:58:18Z</time>
      </trkpt>
      <trkpt lat="45.15806" lon="6.44211">
        <ele>1724</ele>
        <time>2018-09-02T05:58:24Z</time>
      </trkpt>
      <trkpt lat="45.15843" lon="6.44199">
        <ele>1723</ele>
        <time>2018-09-02T05:58:36Z</time>
      </trkpt>
      <trkpt lat="45.15854" lon="6.44198">
        <ele>1722</ele>
        <time>2018-09-02T05:58:42Z</time>
      </trkpt>
      <trkpt lat="45.15868" lon="6.44199">
        <ele>1721</ele>
        <time>2018-09-02T05:58:48Z</time>
      </trkpt>
      <trkpt lat="45.1588" lon="6.44201">
        <ele>1721</ele>
        <time>2018-09-02T05:58:54Z</time>
      </trkpt>
      <trkpt lat="45.15889" lon="6.44204">
        <ele>1722</ele>
        <time>2018-09-02T05:59:00Z</time>
      </trkpt>
      <trkpt lat="45.1589" lon="6.44205">
        <ele>1722</ele>
        <time>2018-09-02T05:59:06Z</time>
      </trkpt>
      <trkpt lat="45.1589" lon="6.44205">
        <ele>1722</ele>
        <time>2018-09-02T05:59:12Z</time>
      </trkpt>
      <trkpt lat="45.1589" lon="6.44205">
        <ele>1722</ele>
        <time>2018-09-02T05:59:18Z</time>
      </trkpt>
      <trkpt lat="45.1589" lon="6.44205">
        <ele>1722</ele>
        <time>2018-09-02T05:59:24Z</time>
      </trkpt>
      <trkpt lat="45.1589" lon="6.44205">
        <ele>1722</ele>
        <time>2018-09-02T05:59:30Z</time>
      </trkpt>
      <trkpt lat="45.15895" lon="6.44205">
        <ele>1722</ele>
        <time>2018-09-02T05:59:36Z</time>
      </trkpt>
      <trkpt lat="45.15915" lon="6.44202">
        <ele>1722</ele>
        <time>2018-09-02T05:59:42Z</time>
      </trkpt>
      <trkpt lat="45.15939" lon="6.442">
        <ele>1724</ele>
        <time>2018-09-02T05:59:48Z</time>
      </trkpt>
      <trkpt lat="45.15958" lon="6.44203">
        <ele>1725</ele>
        <time>2018-09-02T05:59:54Z</time>
      </trkpt>
      <trkpt lat="45.16018" lon="6.44223">
        <ele>1728</ele>
        <time>2018-09-02T06:00:17Z</time>
      </trkpt>
      <trkpt lat="45.16044" lon="6.44228">
        <ele>1730</ele>
        <time>2018-09-02T06:00:22Z</time>
      </trkpt>
      <trkpt lat="45.16081" lon="6.44226">
        <ele>1725</ele>
        <time>2018-09-02T06:00:28Z</time>
      </trkpt>
      <trkpt lat="45.16101" lon="6.44236">
        <ele>1725</ele>
        <time>2018-09-02T06:00:34Z</time>
      </trkpt>
      <trkpt lat="45.16113" lon="6.44246">
        <ele>1727</ele>
        <time>2018-09-02T06:00:49Z</time>
      </trkpt>
      <trkpt lat="45.16177" lon="6.44255">
        <ele>1719</ele>
        <time>2018-09-02T06:01:00Z</time>
      </trkpt>
      <trkpt lat="45.16251" lon="6.44241">
        <ele>1715</ele>
        <time>2018-09-02T06:01:12Z</time>
      </trkpt>
      <trkpt lat="45.16273" lon="6.44204">
        <ele>1708</ele>
        <time>2018-09-02T06:01:18Z</time>
      </trkpt>
      <trkpt lat="45.16277" lon="6.44194">
        <ele>1706</ele>
        <time>2018-09-02T06:01:24Z</time>
      </trkpt>
      <trkpt lat="45.16279" lon="6.44191">
        <ele>1706</ele>
        <time>2018-09-02T06:01:30Z</time>
      </trkpt>
      <trkpt lat="45.16276" lon="6.44188">
        <ele>1704</ele>
        <time>2018-09-02T06:01:38Z</time>
      </trkpt>
      <trkpt lat="45.16274" lon="6.44186">
        <ele>1702</ele>
        <time>2018-09-02T06:01:51Z</time>
      </trkpt>
      <trkpt lat="45.16306" lon="6.44179">
        <ele>1713</ele>
        <time>2018-09-02T06:02:22Z</time>
      </trkpt>
      <trkpt lat="45.16366" lon="6.4416">
        <ele>1710</ele>
        <time>2018-09-02T06:02:35Z</time>
      </trkpt>
      <trkpt lat="45.16399" lon="6.44154">
        <ele>1711</ele>
        <time>2018-09-02T06:02:46Z</time>
      </trkpt>
      <trkpt lat="45.16427" lon="6.44153">
        <ele>1713</ele>
        <time>2018-09-02T06:02:57Z</time>
      </trkpt>
      <trkpt lat="45.16454" lon="6.44162">
        <ele>1719</ele>
        <time>2018-09-02T06:03:08Z</time>
      </trkpt>
      <trkpt lat="45.16461" lon="6.44169">
        <ele>1722</ele>
        <time>2018-09-02T06:03:12Z</time>
      </trkpt>
      <trkpt lat="45.16458" lon="6.44181">
        <ele>1724</ele>
        <time>2018-09-02T06:03:18Z</time>
      </trkpt>
      <trkpt lat="45.16447" lon="6.4419">
        <ele>1722</ele>
        <time>2018-09-02T06:03:24Z</time>
      </trkpt>
      <trkpt lat="45.16433" lon="6.44197">
        <ele>1722</ele>
        <time>2018-09-02T06:03:36Z</time>
      </trkpt>
      <trkpt lat="45.16432" lon="6.44212">
        <ele>1726</ele>
        <time>2018-09-02T06:03:43Z</time>
      </trkpt>
      <trkpt lat="45.1644" lon="6.44211">
        <ele>1727</ele>
        <time>2018-09-02T06:03:48Z</time>
      </trkpt>
      <trkpt lat="45.16456" lon="6.44214">
        <ele>1732</ele>
        <time>2018-09-02T06:03:54Z</time>
      </trkpt>
      <trkpt lat="45.16461" lon="6.44214">
        <ele>1733</ele>
        <time>2018-09-02T06:04:00Z</time>
      </trkpt>
      <trkpt lat="45.1647" lon="6.44212">
        <ele>1735</ele>
        <time>2018-09-02T06:04:06Z</time>
      </trkpt>
      <trkpt lat="45.16482" lon="6.4421">
        <ele>1736</ele>
        <time>2018-09-02T06:04:12Z</time>
      </trkpt>
      <trkpt lat="45.16492" lon="6.44209">
        <ele>1737</ele>
        <time>2018-09-02T06:04:18Z</time>
      </trkpt>
      <trkpt lat="45.16502" lon="6.44206">
        <ele>1738</ele>
        <time>2018-09-02T06:04:24Z</time>
      </trkpt>
      <trkpt lat="45.16512" lon="6.44199">
        <ele>1738</ele>
        <time>2018-09-02T06:04:30Z</time>
      </trkpt>
      <trkpt lat="45.1652" lon="6.44191">
        <ele>1738</ele>
        <time>2018-09-02T06:04:36Z</time>
      </trkpt>
      <trkpt lat="45.16538" lon="6.4417">
        <ele>1736</ele>
        <time>2018-09-02T06:04:48Z</time>
      </trkpt>
      <trkpt lat="45.16545" lon="6.44165">
        <ele>1736</ele>
        <time>2018-09-02T06:04:54Z</time>
      </trkpt>
      <trkpt lat="45.16552" lon="6.44163">
        <ele>1736</ele>
        <time>2018-09-02T06:05:00Z</time>
      </trkpt>
      <trkpt lat="45.16561" lon="6.44165">
        <ele>1737</ele>
        <time>2018-09-02T06:05:06Z</time>
      </trkpt>
      <trkpt lat="45.16591" lon="6.4416">
        <ele>1738</ele>
        <time>2018-09-02T06:05:18Z</time>
      </trkpt>
      <trkpt lat="45.16605" lon="6.44163">
        <ele>1738</ele>
        <time>2018-09-02T06:05:24Z</time>
      </trkpt>
      <trkpt lat="45.16618" lon="6.44168">
        <ele>1739</ele>
        <time>2018-09-02T06:05:30Z</time>
      </trkpt>
      <trkpt lat="45.16631" lon="6.44175">
        <ele>1740</ele>
        <time>2018-09-02T06:05:36Z</time>
      </trkpt>
      <trkpt lat="45.16641" lon="6.44185">
        <ele>1741</ele>
        <time>2018-09-02T06:05:42Z</time>
      </trkpt>
      <trkpt lat="45.16652" lon="6.44199">
        <ele>1743</ele>
        <time>2018-09-02T06:05:48Z</time>
      </trkpt>
      <trkpt lat="45.16682" lon="6.4423">
        <ele>1743</ele>
        <time>2018-09-02T06:06:00Z</time>
      </trkpt>
      <trkpt lat="45.16696" lon="6.4425">
        <ele>1742</ele>
        <time>2018-09-02T06:06:06Z</time>
      </trkpt>
      <trkpt lat="45.16714" lon="6.44274">
        <ele>1741</ele>
        <time>2018-09-02T06:06:12Z</time>
      </trkpt>
      <trkpt lat="45.16735" lon="6.44291">
        <ele>1736</ele>
        <time>2018-09-02T06:06:18Z</time>
      </trkpt>
      <trkpt lat="45.16765" lon="6.443">
        <ele>1730</ele>
        <time>2018-09-02T06:06:24Z</time>
      </trkpt>
      <trkpt lat="45.16792" lon="6.44304">
        <ele>1727</ele>
        <time>2018-09-02T06:06:30Z</time>
      </trkpt>
      <trkpt lat="45.16813" lon="6.44307">
        <ele>1726</ele>
        <time>2018-09-02T06:06:36Z</time>
      </trkpt>
      <trkpt lat="45.16837" lon="6.44304">
        <ele>1723</ele>
        <time>2018-09-02T06:06:42Z</time>
      </trkpt>
      <trkpt lat="45.1686" lon="6.44307">
        <ele>1725</ele>
        <time>2018-09-02T06:06:48Z</time>
      </trkpt>
      <trkpt lat="45.16871" lon="6.44302">
        <ele>1725</ele>
        <time>2018-09-02T06:06:54Z</time>
      </trkpt>
      <trkpt lat="45.16883" lon="6.44293">
        <ele>1725</ele>
        <time>2018-09-02T06:07:00Z</time>
      </trkpt>
      <trkpt lat="45.16893" lon="6.44285">
        <ele>1726</ele>
        <time>2018-09-02T06:07:06Z</time>
      </trkpt>
      <trkpt lat="45.16915" lon="6.44267">
        <ele>1727</ele>
        <time>2018-09-02T06:07:18Z</time>
      </trkpt>
      <trkpt lat="45.16929" lon="6.44258">
        <ele>1727</ele>
        <time>2018-09-02T06:07:24Z</time>
      </trkpt>
      <trkpt lat="45.16946" lon="6.44259">
        <ele>1729</ele>
        <time>2018-09-02T06:07:30Z</time>
      </trkpt>
      <trkpt lat="45.1696" lon="6.44254">
        <ele>1731</ele>
        <time>2018-09-02T06:07:36Z</time>
      </trkpt>
      <trkpt lat="45.16986" lon="6.4424">
        <ele>1730</ele>
        <time>2018-09-02T06:07:48Z</time>
      </trkpt>
      <trkpt lat="45.17001" lon="6.4424">
        <ele>1730</ele>
        <time>2018-09-02T06:07:54Z</time>
      </trkpt>
      <trkpt lat="45.17025" lon="6.44251">
        <ele>1731</ele>
        <time>2018-09-02T06:08:06Z</time>
      </trkpt>
      <trkpt lat="45.17035" lon="6.44263">
        <ele>1733</ele>
        <time>2018-09-02T06:08:12Z</time>
      </trkpt>
      <trkpt lat="45.17045" lon="6.44284">
        <ele>1737</ele>
        <time>2018-09-02T06:08:18Z</time>
      </trkpt>
      <trkpt lat="45.17057" lon="6.44308">
        <ele>1740</ele>
        <time>2018-09-02T06:08:24Z</time>
      </trkpt>
      <trkpt lat="45.17079" lon="6.44329">
        <ele>1736</ele>
        <time>2018-09-02T06:08:30Z</time>
      </trkpt>
      <trkpt lat="45.17103" lon="6.44349">
        <ele>1731</ele>
        <time>2018-09-02T06:08:36Z</time>
      </trkpt>
      <trkpt lat="45.17133" lon="6.44355">
        <ele>1730</ele>
        <time>2018-09-02T06:08:42Z</time>
      </trkpt>
      <trkpt lat="45.17163" lon="6.44376">
        <ele>1735</ele>
        <time>2018-09-02T06:08:54Z</time>
      </trkpt>
      <trkpt lat="45.17178" lon="6.44387">
        <ele>1738</ele>
        <time>2018-09-02T06:09:00Z</time>
      </trkpt>
      <trkpt lat="45.17204" lon="6.44401">
        <ele>1741</ele>
        <time>2018-09-02T06:09:12Z</time>
      </trkpt>
      <trkpt lat="45.17209" lon="6.44413">
        <ele>1743</ele>
        <time>2018-09-02T06:09:18Z</time>
      </trkpt>
      <trkpt lat="45.17213" lon="6.44428">
        <ele>1745</ele>
        <time>2018-09-02T06:09:24Z</time>
      </trkpt>
      <trkpt lat="45.17207" lon="6.44442">
        <ele>1747</ele>
        <time>2018-09-02T06:09:30Z</time>
      </trkpt>
      <trkpt lat="45.17205" lon="6.44458">
        <ele>1748</ele>
        <time>2018-09-02T06:09:36Z</time>
      </trkpt>
      <trkpt lat="45.1721" lon="6.44471">
        <ele>1749</ele>
        <time>2018-09-02T06:09:42Z</time>
      </trkpt>
      <trkpt lat="45.17223" lon="6.44477">
        <ele>1748</ele>
        <time>2018-09-02T06:09:48Z</time>
      </trkpt>
      <trkpt lat="45.17237" lon="6.44487">
        <ele>1747</ele>
        <time>2018-09-02T06:09:54Z</time>
      </trkpt>
      <trkpt lat="45.17251" lon="6.44496">
        <ele>1746</ele>
        <time>2018-09-02T06:10:00Z</time>
      </trkpt>
      <trkpt lat="45.17263" lon="6.44508">
        <ele>1746</ele>
        <time>2018-09-02T06:10:06Z</time>
      </trkpt>
      <trkpt lat="45.17281" lon="6.44529">
        <ele>1747</ele>
        <time>2018-09-02T06:10:12Z</time>
      </trkpt>
      <trkpt lat="45.173" lon="6.4454">
        <ele>1745</ele>
        <time>2018-09-02T06:10:18Z</time>
      </trkpt>
      <trkpt lat="45.17316" lon="6.44546">
        <ele>1743</ele>
        <time>2018-09-02T06:10:24Z</time>
      </trkpt>
      <trkpt lat="45.17336" lon="6.44556">
        <ele>1743</ele>
        <time>2018-09-02T06:10:30Z</time>
      </trkpt>
      <trkpt lat="45.17377" lon="6.44567">
        <ele>1744</ele>
        <time>2018-09-02T06:10:42Z</time>
      </trkpt>
      <trkpt lat="45.17405" lon="6.44576">
        <ele>1742</ele>
        <time>2018-09-02T06:10:48Z</time>
      </trkpt>
      <trkpt lat="45.17428" lon="6.44588">
        <ele>1740</ele>
        <time>2018-09-02T06:10:54Z</time>
      </trkpt>
      <trkpt lat="45.17462" lon="6.44594">
        <ele>1739</ele>
        <time>2018-09-02T06:11:00Z</time>
      </trkpt>
      <trkpt lat="45.17493" lon="6.44606">
        <ele>1747</ele>
        <time>2018-09-02T06:11:06Z</time>
      </trkpt>
      <trkpt lat="45.17519" lon="6.446">
        <ele>1749</ele>
        <time>2018-09-02T06:11:12Z</time>
      </trkpt>
      <trkpt lat="45.17536" lon="6.44596">
        <ele>1747</ele>
        <time>2018-09-02T06:11:18Z</time>
      </trkpt>
      <trkpt lat="45.17557" lon="6.44605">
        <ele>1748</ele>
        <time>2018-09-02T06:11:24Z</time>
      </trkpt>
      <trkpt lat="45.17587" lon="6.44627">
        <ele>1753</ele>
        <time>2018-09-02T06:11:30Z</time>
      </trkpt>
      <trkpt lat="45.17608" lon="6.44645">
        <ele>1751</ele>
        <time>2018-09-02T06:11:36Z</time>
      </trkpt>
      <trkpt lat="45.17637" lon="6.44667">
        <ele>1749</ele>
        <time>2018-09-02T06:11:45Z</time>
      </trkpt>
      <trkpt lat="45.17668" lon="6.44702">
        <ele>1752</ele>
        <time>2018-09-02T06:11:57Z</time>
      </trkpt>
      <trkpt lat="45.17674" lon="6.44708">
        <ele>1753</ele>
        <time>2018-09-02T06:12:03Z</time>
      </trkpt>
      <trkpt lat="45.17688" lon="6.44711">
        <ele>1754</ele>
        <time>2018-09-02T06:12:09Z</time>
      </trkpt>
      <trkpt lat="45.17704" lon="6.44709">
        <ele>1753</ele>
        <time>2018-09-02T06:12:15Z</time>
      </trkpt>
      <trkpt lat="45.17713" lon="6.44703">
        <ele>1752</ele>
        <time>2018-09-02T06:12:21Z</time>
      </trkpt>
      <trkpt lat="45.17722" lon="6.44699">
        <ele>1752</ele>
        <time>2018-09-02T06:12:27Z</time>
      </trkpt>
      <trkpt lat="45.17732" lon="6.44692">
        <ele>1752</ele>
        <time>2018-09-02T06:12:33Z</time>
      </trkpt>
      <trkpt lat="45.17746" lon="6.4468">
        <ele>1752</ele>
        <time>2018-09-02T06:12:39Z</time>
      </trkpt>
      <trkpt lat="45.17757" lon="6.44667">
        <ele>1754</ele>
        <time>2018-09-02T06:12:45Z</time>
      </trkpt>
      <trkpt lat="45.17766" lon="6.44657">
        <ele>1755</ele>
        <time>2018-09-02T06:12:51Z</time>
      </trkpt>
      <trkpt lat="45.17773" lon="6.44642">
        <ele>1756</ele>
        <time>2018-09-02T06:12:57Z</time>
      </trkpt>
      <trkpt lat="45.17776" lon="6.44621">
        <ele>1756</ele>
        <time>2018-09-02T06:13:03Z</time>
      </trkpt>
      <trkpt lat="45.17779" lon="6.44571">
        <ele>1751</ele>
        <time>2018-09-02T06:13:15Z</time>
      </trkpt>
      <trkpt lat="45.17784" lon="6.44551">
        <ele>1749</ele>
        <time>2018-09-02T06:13:21Z</time>
      </trkpt>
      <trkpt lat="45.17791" lon="6.44535">
        <ele>1746</ele>
        <time>2018-09-02T06:13:27Z</time>
      </trkpt>
      <trkpt lat="45.17796" lon="6.44534">
        <ele>1747</ele>
        <time>2018-09-02T06:13:33Z</time>
      </trkpt>
      <trkpt lat="45.17798" lon="6.44532">
        <ele>1746</ele>
        <time>2018-09-02T06:13:39Z</time>
      </trkpt>
      <trkpt lat="45.17798" lon="6.44531">
        <ele>1746</ele>
        <time>2018-09-02T06:13:45Z</time>
      </trkpt>
      <trkpt lat="45.17798" lon="6.44531">
        <ele>1746</ele>
        <time>2018-09-02T06:13:51Z</time>
      </trkpt>
      <trkpt lat="45.17798" lon="6.44531">
        <ele>1746</ele>
        <time>2018-09-02T06:13:57Z</time>
      </trkpt>
      <trkpt lat="45.17798" lon="6.44531">
        <ele>1746</ele>
        <time>2018-09-02T06:14:15Z</time>
      </trkpt>
      <trkpt lat="45.17798" lon="6.44531">
        <ele>1746</ele>
        <time>2018-09-02T06:14:27Z</time>
      </trkpt>
      <trkpt lat="45.17801" lon="6.44534">
        <ele>1747</ele>
        <time>2018-09-02T06:14:33Z</time>
      </trkpt>
      <trkpt lat="45.17814" lon="6.44541">
        <ele>1750</ele>
        <time>2018-09-02T06:14:39Z</time>
      </trkpt>
      <trkpt lat="45.17827" lon="6.44547">
        <ele>1752</ele>
        <time>2018-09-02T06:14:45Z</time>
      </trkpt>
      <trkpt lat="45.17852" lon="6.4455">
        <ele>1753</ele>
        <time>2018-09-02T06:14:51Z</time>
      </trkpt>
      <trkpt lat="45.17862" lon="6.44558">
        <ele>1754</ele>
        <time>2018-09-02T06:14:57Z</time>
      </trkpt>
      <trkpt lat="45.17867" lon="6.44569">
        <ele>1757</ele>
        <time>2018-09-02T06:15:03Z</time>
      </trkpt>
      <trkpt lat="45.17882" lon="6.44585">
        <ele>1761</ele>
        <time>2018-09-02T06:15:09Z</time>
      </trkpt>
      <trkpt lat="45.17907" lon="6.446">
        <ele>1765</ele>
        <time>2018-09-02T06:15:15Z</time>
      </trkpt>
      <trkpt lat="45.17921" lon="6.44606">
        <ele>1766</ele>
        <time>2018-09-02T06:15:21Z</time>
      </trkpt>
      <trkpt lat="45.17926" lon="6.44604">
        <ele>1766</ele>
        <time>2018-09-02T06:15:27Z</time>
      </trkpt>
      <trkpt lat="45.17942" lon="6.44607">
        <ele>1767</ele>
        <time>2018-09-02T06:15:33Z</time>
      </trkpt>
      <trkpt lat="45.17954" lon="6.44607">
        <ele>1768</ele>
        <time>2018-09-02T06:15:39Z</time>
      </trkpt>
      <trkpt lat="45.17961" lon="6.44605">
        <ele>1767</ele>
        <time>2018-09-02T06:15:45Z</time>
      </trkpt>
      <trkpt lat="45.17976" lon="6.44607">
        <ele>1768</ele>
        <time>2018-09-02T06:15:51Z</time>
      </trkpt>
      <trkpt lat="45.17999" lon="6.44606">
        <ele>1769</ele>
        <time>2018-09-02T06:16:09Z</time>
      </trkpt>
      <trkpt lat="45.18011" lon="6.44615">
        <ele>1770</ele>
        <time>2018-09-02T06:16:15Z</time>
      </trkpt>
      <trkpt lat="45.18024" lon="6.44624">
        <ele>1770</ele>
        <time>2018-09-02T06:16:21Z</time>
      </trkpt>
      <trkpt lat="45.18031" lon="6.44629">
        <ele>1771</ele>
        <time>2018-09-02T06:16:27Z</time>
      </trkpt>
      <trkpt lat="45.18034" lon="6.44636">
        <ele>1771</ele>
        <time>2018-09-02T06:16:33Z</time>
      </trkpt>
      <trkpt lat="45.18037" lon="6.44644">
        <ele>1772</ele>
        <time>2018-09-02T06:16:39Z</time>
      </trkpt>
      <trkpt lat="45.18038" lon="6.44655">
        <ele>1774</ele>
        <time>2018-09-02T06:16:45Z</time>
      </trkpt>
      <trkpt lat="45.18045" lon="6.44665">
        <ele>1776</ele>
        <time>2018-09-02T06:16:51Z</time>
      </trkpt>
      <trkpt lat="45.18055" lon="6.44675">
        <ele>1779</ele>
        <time>2018-09-02T06:17:03Z</time>
      </trkpt>
      <trkpt lat="45.18063" lon="6.44676">
        <ele>1781</ele>
        <time>2018-09-02T06:17:09Z</time>
      </trkpt>
      <trkpt lat="45.18073" lon="6.44677">
        <ele>1783</ele>
        <time>2018-09-02T06:17:15Z</time>
      </trkpt>
      <trkpt lat="45.18083" lon="6.44678">
        <ele>1785</ele>
        <time>2018-09-02T06:17:21Z</time>
      </trkpt>
      <trkpt lat="45.18091" lon="6.44678">
        <ele>1785</ele>
        <time>2018-09-02T06:17:27Z</time>
      </trkpt>
      <trkpt lat="45.18102" lon="6.44677">
        <ele>1786</ele>
        <time>2018-09-02T06:17:33Z</time>
      </trkpt>
      <trkpt lat="45.18111" lon="6.44678">
        <ele>1786</ele>
        <time>2018-09-02T06:17:39Z</time>
      </trkpt>
      <trkpt lat="45.18131" lon="6.44679">
        <ele>1787</ele>
        <time>2018-09-02T06:17:51Z</time>
      </trkpt>
      <trkpt lat="45.18148" lon="6.44678">
        <ele>1787</ele>
        <time>2018-09-02T06:17:57Z</time>
      </trkpt>
      <trkpt lat="45.18157" lon="6.44673">
        <ele>1786</ele>
        <time>2018-09-02T06:18:03Z</time>
      </trkpt>
      <trkpt lat="45.18169" lon="6.44666">
        <ele>1785</ele>
        <time>2018-09-02T06:18:09Z</time>
      </trkpt>
      <trkpt lat="45.1818" lon="6.44661">
        <ele>1785</ele>
        <time>2018-09-02T06:18:15Z</time>
      </trkpt>
      <trkpt lat="45.1819" lon="6.44658">
        <ele>1785</ele>
        <time>2018-09-02T06:18:21Z</time>
      </trkpt>
      <trkpt lat="45.18208" lon="6.44648">
        <ele>1785</ele>
        <time>2018-09-02T06:18:33Z</time>
      </trkpt>
      <trkpt lat="45.18226" lon="6.44649">
        <ele>1789</ele>
        <time>2018-09-02T06:18:39Z</time>
      </trkpt>
      <trkpt lat="45.18241" lon="6.4465">
        <ele>1789</ele>
        <time>2018-09-02T06:18:45Z</time>
      </trkpt>
      <trkpt lat="45.18265" lon="6.44646">
        <ele>1787</ele>
        <time>2018-09-02T06:18:57Z</time>
      </trkpt>
      <trkpt lat="45.1828" lon="6.44651">
        <ele>1788</ele>
        <time>2018-09-02T06:19:03Z</time>
      </trkpt>
      <trkpt lat="45.18297" lon="6.44653">
        <ele>1789</ele>
        <time>2018-09-02T06:19:09Z</time>
      </trkpt>
      <trkpt lat="45.18318" lon="6.44653">
        <ele>1789</ele>
        <time>2018-09-02T06:19:21Z</time>
      </trkpt>
      <trkpt lat="45.18334" lon="6.44655">
        <ele>1789</ele>
        <time>2018-09-02T06:19:27Z</time>
      </trkpt>
      <trkpt lat="45.18349" lon="6.44661">
        <ele>1790</ele>
        <time>2018-09-02T06:19:33Z</time>
      </trkpt>
      <trkpt lat="45.1836" lon="6.44666">
        <ele>1790</ele>
        <time>2018-09-02T06:19:39Z</time>
      </trkpt>
      <trkpt lat="45.18374" lon="6.44667">
        <ele>1791</ele>
        <time>2018-09-02T06:19:45Z</time>
      </trkpt>
      <trkpt lat="45.18382" lon="6.44669">
        <ele>1792</ele>
        <time>2018-09-02T06:19:51Z</time>
      </trkpt>
      <trkpt lat="45.1839" lon="6.44669">
        <ele>1793</ele>
        <time>2018-09-02T06:19:57Z</time>
      </trkpt>
      <trkpt lat="45.18401" lon="6.44672">
        <ele>1795</ele>
        <time>2018-09-02T06:20:03Z</time>
      </trkpt>
      <trkpt lat="45.18421" lon="6.44675">
        <ele>1798</ele>
        <time>2018-09-02T06:20:15Z</time>
      </trkpt>
      <trkpt lat="45.18432" lon="6.44674">
        <ele>1798</ele>
        <time>2018-09-02T06:20:21Z</time>
      </trkpt>
      <trkpt lat="45.18446" lon="6.44673">
        <ele>1798</ele>
        <time>2018-09-02T06:20:27Z</time>
      </trkpt>
      <trkpt lat="45.18454" lon="6.44671">
        <ele>1797</ele>
        <time>2018-09-02T06:20:33Z</time>
      </trkpt>
      <trkpt lat="45.18486" lon="6.44674">
        <ele>1800</ele>
        <time>2018-09-02T06:20:45Z</time>
      </trkpt>
      <trkpt lat="45.18503" lon="6.44671">
        <ele>1800</ele>
        <time>2018-09-02T06:20:51Z</time>
      </trkpt>
      <trkpt lat="45.18518" lon="6.44672">
        <ele>1801</ele>
        <time>2018-09-02T06:20:57Z</time>
      </trkpt>
      <trkpt lat="45.18533" lon="6.44675">
        <ele>1803</ele>
        <time>2018-09-02T06:21:03Z</time>
      </trkpt>
      <trkpt lat="45.18542" lon="6.44677">
        <ele>1806</ele>
        <time>2018-09-02T06:21:08Z</time>
      </trkpt>
      <trkpt lat="45.18553" lon="6.44673">
        <ele>1806</ele>
        <time>2018-09-02T06:21:15Z</time>
      </trkpt>
      <trkpt lat="45.18571" lon="6.44677">
        <ele>1808</ele>
        <time>2018-09-02T06:21:21Z</time>
      </trkpt>
      <trkpt lat="45.18583" lon="6.44677">
        <ele>1808</ele>
        <time>2018-09-02T06:21:27Z</time>
      </trkpt>
      <trkpt lat="45.186" lon="6.44671">
        <ele>1804</ele>
        <time>2018-09-02T06:21:33Z</time>
      </trkpt>
      <trkpt lat="45.18612" lon="6.4467">
        <ele>1803</ele>
        <time>2018-09-02T06:21:39Z</time>
      </trkpt>
      <trkpt lat="45.18623" lon="6.44674">
        <ele>1804</ele>
        <time>2018-09-02T06:21:45Z</time>
      </trkpt>
      <trkpt lat="45.18636" lon="6.44676">
        <ele>1805</ele>
        <time>2018-09-02T06:21:51Z</time>
      </trkpt>
      <trkpt lat="45.18646" lon="6.4468">
        <ele>1807</ele>
        <time>2018-09-02T06:21:57Z</time>
      </trkpt>
      <trkpt lat="45.18655" lon="6.44683">
        <ele>1808</ele>
        <time>2018-09-02T06:22:03Z</time>
      </trkpt>
      <trkpt lat="45.18666" lon="6.4469">
        <ele>1811</ele>
        <time>2018-09-02T06:22:09Z</time>
      </trkpt>
      <trkpt lat="45.18678" lon="6.44694">
        <ele>1811</ele>
        <time>2018-09-02T06:22:15Z</time>
      </trkpt>
      <trkpt lat="45.18688" lon="6.44701">
        <ele>1813</ele>
        <time>2018-09-02T06:22:21Z</time>
      </trkpt>
      <trkpt lat="45.18695" lon="6.44706">
        <ele>1814</ele>
        <time>2018-09-02T06:22:27Z</time>
      </trkpt>
      <trkpt lat="45.18703" lon="6.44713">
        <ele>1815</ele>
        <time>2018-09-02T06:22:33Z</time>
      </trkpt>
      <trkpt lat="45.18712" lon="6.44716">
        <ele>1814</ele>
        <time>2018-09-02T06:22:39Z</time>
      </trkpt>
      <trkpt lat="45.1873" lon="6.44727">
        <ele>1815</ele>
        <time>2018-09-02T06:22:51Z</time>
      </trkpt>
      <trkpt lat="45.18735" lon="6.4473">
        <ele>1816</ele>
        <time>2018-09-02T06:22:57Z</time>
      </trkpt>
      <trkpt lat="45.18742" lon="6.44739">
        <ele>1818</ele>
        <time>2018-09-02T06:23:03Z</time>
      </trkpt>
      <trkpt lat="45.18749" lon="6.44745">
        <ele>1819</ele>
        <time>2018-09-02T06:23:09Z</time>
      </trkpt>
      <trkpt lat="45.18768" lon="6.44763">
        <ele>1822</ele>
        <time>2018-09-02T06:23:21Z</time>
      </trkpt>
      <trkpt lat="45.18773" lon="6.44774">
        <ele>1826</ele>
        <time>2018-09-02T06:23:27Z</time>
      </trkpt>
      <trkpt lat="45.18777" lon="6.44785">
        <ele>1829</ele>
        <time>2018-09-02T06:23:33Z</time>
      </trkpt>
      <trkpt lat="45.18786" lon="6.44795">
        <ele>1831</ele>
        <time>2018-09-02T06:23:39Z</time>
      </trkpt>
      <trkpt lat="45.18806" lon="6.44813">
        <ele>1834</ele>
        <time>2018-09-02T06:23:51Z</time>
      </trkpt>
      <trkpt lat="45.18814" lon="6.44826">
        <ele>1835</ele>
        <time>2018-09-02T06:23:57Z</time>
      </trkpt>
      <trkpt lat="45.18818" lon="6.4484">
        <ele>1835</ele>
        <time>2018-09-02T06:24:03Z</time>
      </trkpt>
      <trkpt lat="45.1882" lon="6.44851">
        <ele>1835</ele>
        <time>2018-09-02T06:24:09Z</time>
      </trkpt>
      <trkpt lat="45.18827" lon="6.44877">
        <ele>1835</ele>
        <time>2018-09-02T06:24:21Z</time>
      </trkpt>
      <trkpt lat="45.18825" lon="6.44888">
        <ele>1836</ele>
        <time>2018-09-02T06:24:27Z</time>
      </trkpt>
      <trkpt lat="45.18826" lon="6.44902">
        <ele>1838</ele>
        <time>2018-09-02T06:24:33Z</time>
      </trkpt>
      <trkpt lat="45.18828" lon="6.44898">
        <ele>1837</ele>
        <time>2018-09-02T06:24:39Z</time>
      </trkpt>
      <trkpt lat="45.18826" lon="6.4488">
        <ele>1836</ele>
        <time>2018-09-02T06:24:45Z</time>
      </trkpt>
      <trkpt lat="45.18823" lon="6.44863">
        <ele>1835</ele>
        <time>2018-09-02T06:24:51Z</time>
      </trkpt>
      <trkpt lat="45.18818" lon="6.4484">
        <ele>1835</ele>
        <time>2018-09-02T06:24:57Z</time>
      </trkpt>
      <trkpt lat="45.18819" lon="6.44833">
        <ele>1834</ele>
        <time>2018-09-02T06:25:03Z</time>
      </trkpt>
      <trkpt lat="45.1882" lon="6.44803">
        <ele>1830</ele>
        <time>2018-09-02T06:25:15Z</time>
      </trkpt>
      <trkpt lat="45.18822" lon="6.44779">
        <ele>1823</ele>
        <time>2018-09-02T06:25:21Z</time>
      </trkpt>
      <trkpt lat="45.18826" lon="6.44761">
        <ele>1817</ele>
        <time>2018-09-02T06:25:27Z</time>
      </trkpt>
      <trkpt lat="45.18836" lon="6.44728">
        <ele>1807</ele>
        <time>2018-09-02T06:25:38Z</time>
      </trkpt>
      <trkpt lat="45.18837" lon="6.44709">
        <ele>1802</ele>
        <time>2018-09-02T06:25:44Z</time>
      </trkpt>
      <trkpt lat="45.18834" lon="6.44702">
        <ele>1801</ele>
        <time>2018-09-02T06:25:50Z</time>
      </trkpt>
      <trkpt lat="45.18833" lon="6.44693">
        <ele>1799</ele>
        <time>2018-09-02T06:25:56Z</time>
      </trkpt>
      <trkpt lat="45.18834" lon="6.44689">
        <ele>1798</ele>
        <time>2018-09-02T06:26:02Z</time>
      </trkpt>
      <trkpt lat="45.18836" lon="6.44686">
        <ele>1798</ele>
        <time>2018-09-02T06:26:08Z</time>
      </trkpt>
      <trkpt lat="45.18837" lon="6.44685">
        <ele>1797</ele>
        <time>2018-09-02T06:26:14Z</time>
      </trkpt>
      <trkpt lat="45.18838" lon="6.44684">
        <ele>1797</ele>
        <time>2018-09-02T06:26:20Z</time>
      </trkpt>
      <trkpt lat="45.18838" lon="6.44684">
        <ele>1797</ele>
        <time>2018-09-02T06:26:26Z</time>
      </trkpt>
      <trkpt lat="45.18838" lon="6.44684">
        <ele>1797</ele>
        <time>2018-09-02T06:26:32Z</time>
      </trkpt>
      <trkpt lat="45.18838" lon="6.44684">
        <ele>1797</ele>
        <time>2018-09-02T06:26:38Z</time>
      </trkpt>
      <trkpt lat="45.18839" lon="6.44681">
        <ele>1796</ele>
        <time>2018-09-02T06:26:44Z</time>
      </trkpt>
      <trkpt lat="45.18847" lon="6.44677">
        <ele>1795</ele>
        <time>2018-09-02T06:26:50Z</time>
      </trkpt>
      <trkpt lat="45.18858" lon="6.4467">
        <ele>1793</ele>
        <time>2018-09-02T06:26:56Z</time>
      </trkpt>
      <trkpt lat="45.18863" lon="6.44655">
        <ele>1789</ele>
        <time>2018-09-02T06:27:02Z</time>
      </trkpt>
      <trkpt lat="45.18863" lon="6.44653">
        <ele>1788</ele>
        <time>2018-09-02T06:27:08Z</time>
      </trkpt>
      <trkpt lat="45.18864" lon="6.4465">
        <ele>1787</ele>
        <time>2018-09-02T06:27:14Z</time>
      </trkpt>
      <trkpt lat="45.18864" lon="6.44648">
        <ele>1787</ele>
        <time>2018-09-02T06:27:20Z</time>
      </trkpt>
      <trkpt lat="45.18864" lon="6.44645">
        <ele>1786</ele>
        <time>2018-09-02T06:27:38Z</time>
      </trkpt>
      <trkpt lat="45.18864" lon="6.44645">
        <ele>1786</ele>
        <time>2018-09-02T06:27:44Z</time>
      </trkpt>
      <trkpt lat="45.18869" lon="6.44645">
        <ele>1785</ele>
        <time>2018-09-02T06:27:50Z</time>
      </trkpt>
      <trkpt lat="45.18877" lon="6.44645">
        <ele>1783</ele>
        <time>2018-09-02T06:27:56Z</time>
      </trkpt>
      <trkpt lat="45.18879" lon="6.44639">
        <ele>1781</ele>
        <time>2018-09-02T06:28:02Z</time>
      </trkpt>
      <trkpt lat="45.18883" lon="6.4463">
        <ele>1777</ele>
        <time>2018-09-02T06:28:08Z</time>
      </trkpt>
      <trkpt lat="45.18882" lon="6.44627">
        <ele>1776</ele>
        <time>2018-09-02T06:28:14Z</time>
      </trkpt>
      <trkpt lat="45.1888" lon="6.4462">
        <ele>1775</ele>
        <time>2018-09-02T06:28:20Z</time>
      </trkpt>
      <trkpt lat="45.18881" lon="6.44614">
        <ele>1773</ele>
        <time>2018-09-02T06:28:26Z</time>
      </trkpt>
      <trkpt lat="45.18885" lon="6.44617">
        <ele>1773</ele>
        <time>2018-09-02T06:28:32Z</time>
      </trkpt>
      <trkpt lat="45.18887" lon="6.44608">
        <ele>1769</ele>
        <time>2018-09-02T06:28:44Z</time>
      </trkpt>
      <trkpt lat="45.18885" lon="6.44606">
        <ele>1769</ele>
        <time>2018-09-02T06:28:50Z</time>
      </trkpt>
      <trkpt lat="45.18883" lon="6.44606">
        <ele>1770</ele>
        <time>2018-09-02T06:28:56Z</time>
      </trkpt>
      <trkpt lat="45.18883" lon="6.44605">
        <ele>1769</ele>
        <time>2018-09-02T06:29:02Z</time>
      </trkpt>
      <trkpt lat="45.18883" lon="6.44606">
        <ele>1770</ele>
        <time>2018-09-02T06:29:14Z</time>
      </trkpt>
      <trkpt lat="45.18883" lon="6.44605">
        <ele>1769</ele>
        <time>2018-09-02T06:29:20Z</time>
      </trkpt>
      <trkpt lat="45.18883" lon="6.44605">
        <ele>1769</ele>
        <time>2018-09-02T06:29:26Z</time>
      </trkpt>
      <trkpt lat="45.18883" lon="6.44605">
        <ele>1769</ele>
        <time>2018-09-02T06:29:32Z</time>
      </trkpt>
      <trkpt lat="45.18883" lon="6.44605">
        <ele>1769</ele>
        <time>2018-09-02T06:29:38Z</time>
      </trkpt>
      <trkpt lat="45.18883" lon="6.44605">
        <ele>1769</ele>
        <time>2018-09-02T06:29:44Z</time>
      </trkpt>
      <trkpt lat="45.18873" lon="6.44592">
        <ele>1768</ele>
        <time>2018-09-02T06:29:50Z</time>
      </trkpt>
      <trkpt lat="45.18855" lon="6.44576">
        <ele>1766</ele>
        <time>2018-09-02T06:29:56Z</time>
      </trkpt>
      <trkpt lat="45.18835" lon="6.44556">
        <ele>1761</ele>
        <time>2018-09-02T06:30:02Z</time>
      </trkpt>
      <trkpt lat="45.18814" lon="6.4453">
        <ele>1757</ele>
        <time>2018-09-02T06:30:08Z</time>
      </trkpt>
      <trkpt lat="45.18796" lon="6.4451">
        <ele>1754</ele>
        <time>2018-09-02T06:30:14Z</time>
      </trkpt>
      <trkpt lat="45.18786" lon="6.44505">
        <ele>1753</ele>
        <time>2018-09-02T06:30:20Z</time>
      </trkpt>
      <trkpt lat="45.18771" lon="6.44499">
        <ele>1752</ele>
        <time>2018-09-02T06:30:26Z</time>
      </trkpt>
      <trkpt lat="45.18763" lon="6.44508">
        <ele>1754</ele>
        <time>2018-09-02T06:30:32Z</time>
      </trkpt>
      <trkpt lat="45.18744" lon="6.44515">
        <ele>1755</ele>
        <time>2018-09-02T06:30:44Z</time>
      </trkpt>
      <trkpt lat="45.18731" lon="6.44511">
        <ele>1755</ele>
        <time>2018-09-02T06:30:50Z</time>
      </trkpt>
      <trkpt lat="45.18717" lon="6.44507">
        <ele>1755</ele>
        <time>2018-09-02T06:30:56Z</time>
      </trkpt>
      <trkpt lat="45.187" lon="6.44504">
        <ele>1758</ele>
        <time>2018-09-02T06:31:02Z</time>
      </trkpt>
      <trkpt lat="45.18682" lon="6.44497">
        <ele>1755</ele>
        <time>2018-09-02T06:31:08Z</time>
      </trkpt>
      <trkpt lat="45.18665" lon="6.44486">
        <ele>1749</ele>
        <time>2018-09-02T06:31:14Z</time>
      </trkpt>
      <trkpt lat="45.18646" lon="6.44476">
        <ele>1746</ele>
        <time>2018-09-02T06:31:20Z</time>
      </trkpt>
      <trkpt lat="45.18622" lon="6.4447">
        <ele>1744</ele>
        <time>2018-09-02T06:31:26Z</time>
      </trkpt>
      <trkpt lat="45.18593" lon="6.44463">
        <ele>1741</ele>
        <time>2018-09-02T06:31:32Z</time>
      </trkpt>
      <trkpt lat="45.18564" lon="6.44456">
        <ele>1737</ele>
        <time>2018-09-02T06:31:38Z</time>
      </trkpt>
      <trkpt lat="45.18537" lon="6.44451">
        <ele>1734</ele>
        <time>2018-09-02T06:31:44Z</time>
      </trkpt>
      <trkpt lat="45.18509" lon="6.44446">
        <ele>1733</ele>
        <time>2018-09-02T06:31:50Z</time>
      </trkpt>
      <trkpt lat="45.18512" lon="6.44438">
        <ele>1730</ele>
        <time>2018-09-02T06:31:56Z</time>
      </trkpt>
      <trkpt lat="45.18538" lon="6.44429">
        <ele>1727</ele>
        <time>2018-09-02T06:32:02Z</time>
      </trkpt>
      <trkpt lat="45.18598" lon="6.44395">
        <ele>1717</ele>
        <time>2018-09-02T06:32:14Z</time>
      </trkpt>
      <trkpt lat="45.18627" lon="6.44385">
        <ele>1714</ele>
        <time>2018-09-02T06:32:20Z</time>
      </trkpt>
      <trkpt lat="45.18659" lon="6.4438">
        <ele>1716</ele>
        <time>2018-09-02T06:32:26Z</time>
      </trkpt>
      <trkpt lat="45.18692" lon="6.44377">
        <ele>1718</ele>
        <time>2018-09-02T06:32:32Z</time>
      </trkpt>
      <trkpt lat="45.18718" lon="6.44369">
        <ele>1716</ele>
        <time>2018-09-02T06:32:38Z</time>
      </trkpt>
      <trkpt lat="45.18749" lon="6.44363">
        <ele>1714</ele>
        <time>2018-09-02T06:32:44Z</time>
      </trkpt>
      <trkpt lat="45.18785" lon="6.44355">
        <ele>1711</ele>
        <time>2018-09-02T06:32:50Z</time>
      </trkpt>
      <trkpt lat="45.18864" lon="6.44323">
        <ele>1701</ele>
        <time>2018-09-02T06:33:02Z</time>
      </trkpt>
      <trkpt lat="45.189" lon="6.44315">
        <ele>1693</ele>
        <time>2018-09-02T06:33:08Z</time>
      </trkpt>
      <trkpt lat="45.18936" lon="6.44318">
        <ele>1685</ele>
        <time>2018-09-02T06:33:14Z</time>
      </trkpt>
      <trkpt lat="45.1897" lon="6.44313">
        <ele>1677</ele>
        <time>2018-09-02T06:33:20Z</time>
      </trkpt>
      <trkpt lat="45.18999" lon="6.44309">
        <ele>1670</ele>
        <time>2018-09-02T06:33:26Z</time>
      </trkpt>
      <trkpt lat="45.19015" lon="6.44321">
        <ele>1668</ele>
        <time>2018-09-02T06:33:32Z</time>
      </trkpt>
      <trkpt lat="45.1902" lon="6.4434">
        <ele>1670</ele>
        <time>2018-09-02T06:33:38Z</time>
      </trkpt>
      <trkpt lat="45.19043" lon="6.44386">
        <ele>1667</ele>
        <time>2018-09-02T06:33:50Z</time>
      </trkpt>
      <trkpt lat="45.19059" lon="6.44372">
        <ele>1660</ele>
        <time>2018-09-02T06:33:56Z</time>
      </trkpt>
      <trkpt lat="45.19061" lon="6.44333">
        <ele>1657</ele>
        <time>2018-09-02T06:34:02Z</time>
      </trkpt>
      <trkpt lat="45.1907" lon="6.44303">
        <ele>1652</ele>
        <time>2018-09-02T06:34:08Z</time>
      </trkpt>
      <trkpt lat="45.19081" lon="6.44274">
        <ele>1647</ele>
        <time>2018-09-02T06:34:14Z</time>
      </trkpt>
      <trkpt lat="45.19082" lon="6.44266">
        <ele>1646</ele>
        <time>2018-09-02T06:34:20Z</time>
      </trkpt>
      <trkpt lat="45.19081" lon="6.44265">
        <ele>1646</ele>
        <time>2018-09-02T06:34:44Z</time>
      </trkpt>
      <trkpt lat="45.19087" lon="6.44267">
        <ele>1646</ele>
        <time>2018-09-02T06:34:50Z</time>
      </trkpt>
      <trkpt lat="45.19098" lon="6.44271">
        <ele>1647</ele>
        <time>2018-09-02T06:34:56Z</time>
      </trkpt>
      <trkpt lat="45.1911" lon="6.44266">
        <ele>1646</ele>
        <time>2018-09-02T06:35:02Z</time>
      </trkpt>
      <trkpt lat="45.19107" lon="6.44252">
        <ele>1645</ele>
        <time>2018-09-02T06:35:08Z</time>
      </trkpt>
      <trkpt lat="45.1909" lon="6.4423">
        <ele>1642</ele>
        <time>2018-09-02T06:35:14Z</time>
      </trkpt>
      <trkpt lat="45.19066" lon="6.44226">
        <ele>1639</ele>
        <time>2018-09-02T06:35:20Z</time>
      </trkpt>
      <trkpt lat="45.19044" lon="6.4421">
        <ele>1638</ele>
        <time>2018-09-02T06:35:26Z</time>
      </trkpt>
      <trkpt lat="45.19023" lon="6.44193">
        <ele>1638</ele>
        <time>2018-09-02T06:35:32Z</time>
      </trkpt>
      <trkpt lat="45.18995" lon="6.44186">
        <ele>1641</ele>
        <time>2018-09-02T06:35:38Z</time>
      </trkpt>
      <trkpt lat="45.18965" lon="6.44182">
        <ele>1639</ele>
        <time>2018-09-02T06:35:44Z</time>
      </trkpt>
      <trkpt lat="45.18939" lon="6.44179">
        <ele>1637</ele>
        <time>2018-09-02T06:35:50Z</time>
      </trkpt>
      <trkpt lat="45.18916" lon="6.44185">
        <ele>1636</ele>
        <time>2018-09-02T06:35:56Z</time>
      </trkpt>
      <trkpt lat="45.18886" lon="6.442">
        <ele>1641</ele>
        <time>2018-09-02T06:36:02Z</time>
      </trkpt>
      <trkpt lat="45.18861" lon="6.44192">
        <ele>1644</ele>
        <time>2018-09-02T06:36:08Z</time>
      </trkpt>
      <trkpt lat="45.18847" lon="6.44178">
        <ele>1641</ele>
        <time>2018-09-02T06:36:14Z</time>
      </trkpt>
      <trkpt lat="45.18832" lon="6.44162">
        <ele>1637</ele>
        <time>2018-09-02T06:36:20Z</time>
      </trkpt>
      <trkpt lat="45.18817" lon="6.44153">
        <ele>1634</ele>
        <time>2018-09-02T06:36:26Z</time>
      </trkpt>
      <trkpt lat="45.18764" lon="6.44123">
        <ele>1623</ele>
        <time>2018-09-02T06:36:38Z</time>
      </trkpt>
      <trkpt lat="45.18739" lon="6.44102">
        <ele>1618</ele>
        <time>2018-09-02T06:36:44Z</time>
      </trkpt>
      <trkpt lat="45.18721" lon="6.44098">
        <ele>1614</ele>
        <time>2018-09-02T06:36:50Z</time>
      </trkpt>
      <trkpt lat="45.18699" lon="6.44107">
        <ele>1612</ele>
        <time>2018-09-02T06:36:56Z</time>
      </trkpt>
      <trkpt lat="45.18667" lon="6.44106">
        <ele>1610</ele>
        <time>2018-09-02T06:37:02Z</time>
      </trkpt>
      <trkpt lat="45.18638" lon="6.44097">
        <ele>1609</ele>
        <time>2018-09-02T06:37:08Z</time>
      </trkpt>
      <trkpt lat="45.18616" lon="6.44092">
        <ele>1605</ele>
        <time>2018-09-02T06:37:14Z</time>
      </trkpt>
      <trkpt lat="45.18595" lon="6.44095">
        <ele>1603</ele>
        <time>2018-09-02T06:37:20Z</time>
      </trkpt>
      <trkpt lat="45.1854" lon="6.44091">
        <ele>1596</ele>
        <time>2018-09-02T06:37:32Z</time>
      </trkpt>
      <trkpt lat="45.18516" lon="6.44081">
        <ele>1590</ele>
        <time>2018-09-02T06:37:38Z</time>
      </trkpt>
      <trkpt lat="45.18494" lon="6.4407">
        <ele>1586</ele>
        <time>2018-09-02T06:37:44Z</time>
      </trkpt>
      <trkpt lat="45.18466" lon="6.44055">
        <ele>1580</ele>
        <time>2018-09-02T06:37:50Z</time>
      </trkpt>
      <trkpt lat="45.18415" lon="6.44032">
        <ele>1572</ele>
        <time>2018-09-02T06:38:02Z</time>
      </trkpt>
      <trkpt lat="45.18402" lon="6.44033">
        <ele>1571</ele>
        <time>2018-09-02T06:38:08Z</time>
      </trkpt>
      <trkpt lat="45.18391" lon="6.44029">
        <ele>1568</ele>
        <time>2018-09-02T06:38:14Z</time>
      </trkpt>
      <trkpt lat="45.18375" lon="6.44026">
        <ele>1565</ele>
        <time>2018-09-02T06:38:20Z</time>
      </trkpt>
      <trkpt lat="45.18346" lon="6.44017">
        <ele>1561</ele>
        <time>2018-09-02T06:38:32Z</time>
      </trkpt>
      <trkpt lat="45.18331" lon="6.43998">
        <ele>1557</ele>
        <time>2018-09-02T06:38:38Z</time>
      </trkpt>
      <trkpt lat="45.1831" lon="6.43991">
        <ele>1555</ele>
        <time>2018-09-02T06:38:44Z</time>
      </trkpt>
      <trkpt lat="45.18279" lon="6.43998">
        <ele>1555</ele>
        <time>2018-09-02T06:38:50Z</time>
      </trkpt>
      <trkpt lat="45.18253" lon="6.44005">
        <ele>1552</ele>
        <time>2018-09-02T06:38:56Z</time>
      </trkpt>
      <trkpt lat="45.18228" lon="6.44012">
        <ele>1550</ele>
        <time>2018-09-02T06:39:02Z</time>
      </trkpt>
      <trkpt lat="45.1819" lon="6.4401">
        <ele>1547</ele>
        <time>2018-09-02T06:39:08Z</time>
      </trkpt>
      <trkpt lat="45.18155" lon="6.4401">
        <ele>1545</ele>
        <time>2018-09-02T06:39:14Z</time>
      </trkpt>
      <trkpt lat="45.18131" lon="6.44004">
        <ele>1543</ele>
        <time>2018-09-02T06:39:20Z</time>
      </trkpt>
      <trkpt lat="45.18114" lon="6.44014">
        <ele>1546</ele>
        <time>2018-09-02T06:39:26Z</time>
      </trkpt>
      <trkpt lat="45.181" lon="6.44029">
        <ele>1550</ele>
        <time>2018-09-02T06:39:32Z</time>
      </trkpt>
      <trkpt lat="45.18087" lon="6.44037">
        <ele>1552</ele>
        <time>2018-09-02T06:39:38Z</time>
      </trkpt>
      <trkpt lat="45.18073" lon="6.44035">
        <ele>1550</ele>
        <time>2018-09-02T06:39:44Z</time>
      </trkpt>
      <trkpt lat="45.18044" lon="6.44011">
        <ele>1540</ele>
        <time>2018-09-02T06:39:56Z</time>
      </trkpt>
      <trkpt lat="45.18029" lon="6.44">
        <ele>1536</ele>
        <time>2018-09-02T06:40:02Z</time>
      </trkpt>
      <trkpt lat="45.18003" lon="6.44003">
        <ele>1541</ele>
        <time>2018-09-02T06:40:08Z</time>
      </trkpt>
      <trkpt lat="45.17981" lon="6.44009">
        <ele>1549</ele>
        <time>2018-09-02T06:40:14Z</time>
      </trkpt>
      <trkpt lat="45.17886" lon="6.43987">
        <ele>1542</ele>
        <time>2018-09-02T06:40:49Z</time>
      </trkpt>
      <trkpt lat="45.17849" lon="6.43967">
        <ele>1536</ele>
        <time>2018-09-02T06:40:50Z</time>
      </trkpt>
      <trkpt lat="45.17811" lon="6.43927">
        <ele>1523</ele>
        <time>2018-09-02T06:40:56Z</time>
      </trkpt>
      <trkpt lat="45.17801" lon="6.43905">
        <ele>1519</ele>
        <time>2018-09-02T06:41:02Z</time>
      </trkpt>
      <trkpt lat="45.17796" lon="6.43887">
        <ele>1515</ele>
        <time>2018-09-02T06:41:08Z</time>
      </trkpt>
      <trkpt lat="45.17782" lon="6.43866">
        <ele>1516</ele>
        <time>2018-09-02T06:41:14Z</time>
      </trkpt>
      <trkpt lat="45.17767" lon="6.4385">
        <ele>1518</ele>
        <time>2018-09-02T06:41:20Z</time>
      </trkpt>
      <trkpt lat="45.17756" lon="6.43828">
        <ele>1517</ele>
        <time>2018-09-02T06:41:26Z</time>
      </trkpt>
      <trkpt lat="45.17747" lon="6.43809">
        <ele>1516</ele>
        <time>2018-09-02T06:41:32Z</time>
      </trkpt>
      <trkpt lat="45.17734" lon="6.4379">
        <ele>1515</ele>
        <time>2018-09-02T06:41:44Z</time>
      </trkpt>
      <trkpt lat="45.17727" lon="6.43774">
        <ele>1513</ele>
        <time>2018-09-02T06:41:50Z</time>
      </trkpt>
      <trkpt lat="45.17717" lon="6.43761">
        <ele>1512</ele>
        <time>2018-09-02T06:41:56Z</time>
      </trkpt>
      <trkpt lat="45.17701" lon="6.4375">
        <ele>1514</ele>
        <time>2018-09-02T06:42:08Z</time>
      </trkpt>
      <trkpt lat="45.17696" lon="6.43742">
        <ele>1513</ele>
        <time>2018-09-02T06:42:14Z</time>
      </trkpt>
      <trkpt lat="45.17695" lon="6.43737">
        <ele>1512</ele>
        <time>2018-09-02T06:42:20Z</time>
      </trkpt>
      <trkpt lat="45.17693" lon="6.43732">
        <ele>1511</ele>
        <time>2018-09-02T06:42:26Z</time>
      </trkpt>
      <trkpt lat="45.17696" lon="6.43722">
        <ele>1508</ele>
        <time>2018-09-02T06:42:32Z</time>
      </trkpt>
      <trkpt lat="45.177" lon="6.43712">
        <ele>1505</ele>
        <time>2018-09-02T06:42:38Z</time>
      </trkpt>
      <trkpt lat="45.17698" lon="6.43701">
        <ele>1503</ele>
        <time>2018-09-02T06:42:44Z</time>
      </trkpt>
      <trkpt lat="45.17693" lon="6.43694">
        <ele>1503</ele>
        <time>2018-09-02T06:42:50Z</time>
      </trkpt>
      <trkpt lat="45.17691" lon="6.43694">
        <ele>1503</ele>
        <time>2018-09-02T06:42:56Z</time>
      </trkpt>
      <trkpt lat="45.17689" lon="6.43693">
        <ele>1504</ele>
        <time>2018-09-02T06:43:08Z</time>
      </trkpt>
      <trkpt lat="45.17684" lon="6.43677">
        <ele>1502</ele>
        <time>2018-09-02T06:43:14Z</time>
      </trkpt>
      <trkpt lat="45.17649" lon="6.43623">
        <ele>1500</ele>
        <time>2018-09-02T06:43:26Z</time>
      </trkpt>
      <trkpt lat="45.17638" lon="6.436">
        <ele>1499</ele>
        <time>2018-09-02T06:43:32Z</time>
      </trkpt>
      <trkpt lat="45.17636" lon="6.43583">
        <ele>1497</ele>
        <time>2018-09-02T06:43:38Z</time>
      </trkpt>
      <trkpt lat="45.17631" lon="6.43567">
        <ele>1497</ele>
        <time>2018-09-02T06:43:44Z</time>
      </trkpt>
      <trkpt lat="45.17612" lon="6.43539">
        <ele>1498</ele>
        <time>2018-09-02T06:43:56Z</time>
      </trkpt>
      <trkpt lat="45.17612" lon="6.43522">
        <ele>1497</ele>
        <time>2018-09-02T06:44:02Z</time>
      </trkpt>
      <trkpt lat="45.17609" lon="6.43503">
        <ele>1495</ele>
        <time>2018-09-02T06:44:08Z</time>
      </trkpt>
      <trkpt lat="45.17595" lon="6.4348">
        <ele>1494</ele>
        <time>2018-09-02T06:44:14Z</time>
      </trkpt>
      <trkpt lat="45.17568" lon="6.43432">
        <ele>1493</ele>
        <time>2018-09-02T06:44:26Z</time>
      </trkpt>
      <trkpt lat="45.17555" lon="6.43419">
        <ele>1493</ele>
        <time>2018-09-02T06:44:32Z</time>
      </trkpt>
      <trkpt lat="45.17553" lon="6.43423">
        <ele>1493</ele>
        <time>2018-09-02T06:44:38Z</time>
      </trkpt>
      <trkpt lat="45.17565" lon="6.43434">
        <ele>1494</ele>
        <time>2018-09-02T06:44:44Z</time>
      </trkpt>
      <trkpt lat="45.17581" lon="6.43455">
        <ele>1494</ele>
        <time>2018-09-02T06:44:50Z</time>
      </trkpt>
      <trkpt lat="45.17604" lon="6.43489">
        <ele>1494</ele>
        <time>2018-09-02T06:45:02Z</time>
      </trkpt>
      <trkpt lat="45.17612" lon="6.43503">
        <ele>1495</ele>
        <time>2018-09-02T06:45:08Z</time>
      </trkpt>
      <trkpt lat="45.17611" lon="6.43517">
        <ele>1496</ele>
        <time>2018-09-02T06:45:14Z</time>
      </trkpt>
      <trkpt lat="45.17603" lon="6.43534">
        <ele>1499</ele>
        <time>2018-09-02T06:45:20Z</time>
      </trkpt>
      <trkpt lat="45.17597" lon="6.43548">
        <ele>1501</ele>
        <time>2018-09-02T06:45:26Z</time>
      </trkpt>
      <trkpt lat="45.17591" lon="6.43555">
        <ele>1502</ele>
        <time>2018-09-02T06:45:32Z</time>
      </trkpt>
      <trkpt lat="45.17587" lon="6.43555">
        <ele>1503</ele>
        <time>2018-09-02T06:45:38Z</time>
      </trkpt>
      <trkpt lat="45.17578" lon="6.43551">
        <ele>1504</ele>
        <time>2018-09-02T06:45:50Z</time>
      </trkpt>
      <trkpt lat="45.17569" lon="6.43552">
        <ele>1506</ele>
        <time>2018-09-02T06:45:56Z</time>
      </trkpt>
      <trkpt lat="45.17561" lon="6.43556">
        <ele>1508</ele>
        <time>2018-09-02T06:46:02Z</time>
      </trkpt>
      <trkpt lat="45.17553" lon="6.43561">
        <ele>1510</ele>
        <time>2018-09-02T06:46:08Z</time>
      </trkpt>
      <trkpt lat="45.17545" lon="6.43561">
        <ele>1512</ele>
        <time>2018-09-02T06:46:14Z</time>
      </trkpt>
      <trkpt lat="45.17541" lon="6.4356">
        <ele>1512</ele>
        <time>2018-09-02T06:46:20Z</time>
      </trkpt>
      <trkpt lat="45.17539" lon="6.43561">
        <ele>1513</ele>
        <time>2018-09-02T06:46:26Z</time>
      </trkpt>
      <trkpt lat="45.17538" lon="6.43561">
        <ele>1513</ele>
        <time>2018-09-02T06:46:32Z</time>
      </trkpt>
      <trkpt lat="45.17538" lon="6.43561">
        <ele>1513</ele>
        <time>2018-09-02T06:46:44Z</time>
      </trkpt>
      <trkpt lat="45.17533" lon="6.43558">
        <ele>1513</ele>
        <time>2018-09-02T06:46:50Z</time>
      </trkpt>
      <trkpt lat="45.17523" lon="6.43553">
        <ele>1514</ele>
        <time>2018-09-02T06:46:56Z</time>
      </trkpt>
      <trkpt lat="45.17513" lon="6.43555">
        <ele>1516</ele>
        <time>2018-09-02T06:47:02Z</time>
      </trkpt>
      <trkpt lat="45.17509" lon="6.43558">
        <ele>1518</ele>
        <time>2018-09-02T06:47:08Z</time>
      </trkpt>
      <trkpt lat="45.17508" lon="6.43562">
        <ele>1519</ele>
        <time>2018-09-02T06:47:14Z</time>
      </trkpt>
      <trkpt lat="45.17505" lon="6.43562">
        <ele>1520</ele>
        <time>2018-09-02T06:47:20Z</time>
      </trkpt>
      <trkpt lat="45.17504" lon="6.43562">
        <ele>1520</ele>
        <time>2018-09-02T06:47:26Z</time>
      </trkpt>
      <trkpt lat="45.17504" lon="6.43563">
        <ele>1520</ele>
        <time>2018-09-02T06:47:32Z</time>
      </trkpt>
      <trkpt lat="45.17503" lon="6.43563">
        <ele>1520</ele>
        <time>2018-09-02T06:47:38Z</time>
      </trkpt>
      <trkpt lat="45.17504" lon="6.43567">
        <ele>1521</ele>
        <time>2018-09-02T06:47:44Z</time>
      </trkpt>
      <trkpt lat="45.17503" lon="6.43572">
        <ele>1523</ele>
        <time>2018-09-02T06:47:50Z</time>
      </trkpt>
      <trkpt lat="45.175" lon="6.43572">
        <ele>1524</ele>
        <time>2018-09-02T06:47:56Z</time>
      </trkpt>
      <trkpt lat="45.17491" lon="6.43575">
        <ele>1525</ele>
        <time>2018-09-02T06:48:02Z</time>
      </trkpt>
      <trkpt lat="45.17478" lon="6.43577">
        <ele>1526</ele>
        <time>2018-09-02T06:48:08Z</time>
      </trkpt>
      <trkpt lat="45.17467" lon="6.4358">
        <ele>1528</ele>
        <time>2018-09-02T06:48:14Z</time>
      </trkpt>
      <trkpt lat="45.17458" lon="6.43587">
        <ele>1529</ele>
        <time>2018-09-02T06:48:20Z</time>
      </trkpt>
      <trkpt lat="45.17446" lon="6.43592">
        <ele>1530</ele>
        <time>2018-09-02T06:48:26Z</time>
      </trkpt>
      <trkpt lat="45.17434" lon="6.43598">
        <ele>1530</ele>
        <time>2018-09-02T06:48:32Z</time>
      </trkpt>
      <trkpt lat="45.17415" lon="6.43612">
        <ele>1530</ele>
        <time>2018-09-02T06:48:44Z</time>
      </trkpt>
      <trkpt lat="45.17413" lon="6.43618">
        <ele>1531</ele>
        <time>2018-09-02T06:48:50Z</time>
      </trkpt>
      <trkpt lat="45.17409" lon="6.43619">
        <ele>1530</ele>
        <time>2018-09-02T06:48:56Z</time>
      </trkpt>
      <trkpt lat="45.17405" lon="6.43621">
        <ele>1530</ele>
        <time>2018-09-02T06:49:08Z</time>
      </trkpt>
      <trkpt lat="45.17392" lon="6.43626">
        <ele>1529</ele>
        <time>2018-09-02T06:49:14Z</time>
      </trkpt>
      <trkpt lat="45.17381" lon="6.43635">
        <ele>1530</ele>
        <time>2018-09-02T06:49:20Z</time>
      </trkpt>
      <trkpt lat="45.17371" lon="6.43648">
        <ele>1532</ele>
        <time>2018-09-02T06:49:26Z</time>
      </trkpt>
      <trkpt lat="45.17363" lon="6.43665">
        <ele>1536</ele>
        <time>2018-09-02T06:49:32Z</time>
      </trkpt>
      <trkpt lat="45.17348" lon="6.43685">
        <ele>1536</ele>
        <time>2018-09-02T06:49:44Z</time>
      </trkpt>
      <trkpt lat="45.1734" lon="6.43693">
        <ele>1536</ele>
        <time>2018-09-02T06:49:50Z</time>
      </trkpt>
      <trkpt lat="45.17335" lon="6.43707">
        <ele>1538</ele>
        <time>2018-09-02T06:49:56Z</time>
      </trkpt>
      <trkpt lat="45.17332" lon="6.43718">
        <ele>1539</ele>
        <time>2018-09-02T06:50:02Z</time>
      </trkpt>
      <trkpt lat="45.17333" lon="6.43728">
        <ele>1541</ele>
        <time>2018-09-02T06:50:08Z</time>
      </trkpt>
      <trkpt lat="45.1733" lon="6.4375">
        <ele>1545</ele>
        <time>2018-09-02T06:50:20Z</time>
      </trkpt>
      <trkpt lat="45.17331" lon="6.43763">
        <ele>1547</ele>
        <time>2018-09-02T06:50:26Z</time>
      </trkpt>
      <trkpt lat="45.17328" lon="6.43769">
        <ele>1548</ele>
        <time>2018-09-02T06:50:32Z</time>
      </trkpt>
      <trkpt lat="45.17323" lon="6.43771">
        <ele>1548</ele>
        <time>2018-09-02T06:50:38Z</time>
      </trkpt>
      <trkpt lat="45.1732" lon="6.43772">
        <ele>1548</ele>
        <time>2018-09-02T06:50:44Z</time>
      </trkpt>
      <trkpt lat="45.17317" lon="6.43774">
        <ele>1548</ele>
        <time>2018-09-02T06:50:50Z</time>
      </trkpt>
      <trkpt lat="45.17314" lon="6.43774">
        <ele>1548</ele>
        <time>2018-09-02T06:50:56Z</time>
      </trkpt>
      <trkpt lat="45.17309" lon="6.43775">
        <ele>1548</ele>
        <time>2018-09-02T06:51:02Z</time>
      </trkpt>
      <trkpt lat="45.17298" lon="6.43775">
        <ele>1548</ele>
        <time>2018-09-02T06:51:08Z</time>
      </trkpt>
      <trkpt lat="45.17288" lon="6.43771">
        <ele>1547</ele>
        <time>2018-09-02T06:51:14Z</time>
      </trkpt>
      <trkpt lat="45.17275" lon="6.43767">
        <ele>1546</ele>
        <time>2018-09-02T06:51:20Z</time>
      </trkpt>
      <trkpt lat="45.1726" lon="6.43771">
        <ele>1547</ele>
        <time>2018-09-02T06:51:26Z</time>
      </trkpt>
      <trkpt lat="45.17252" lon="6.43773">
        <ele>1547</ele>
        <time>2018-09-02T06:51:32Z</time>
      </trkpt>
      <trkpt lat="45.17244" lon="6.43772">
        <ele>1548</ele>
        <time>2018-09-02T06:51:38Z</time>
      </trkpt>
      <trkpt lat="45.17237" lon="6.43771">
        <ele>1548</ele>
        <time>2018-09-02T06:51:44Z</time>
      </trkpt>
      <trkpt lat="45.17233" lon="6.43774">
        <ele>1549</ele>
        <time>2018-09-02T06:51:50Z</time>
      </trkpt>
      <trkpt lat="45.17232" lon="6.43775">
        <ele>1549</ele>
        <time>2018-09-02T06:51:56Z</time>
      </trkpt>
      <trkpt lat="45.17231" lon="6.43776">
        <ele>1549</ele>
        <time>2018-09-02T06:52:08Z</time>
      </trkpt>
      <trkpt lat="45.17225" lon="6.43775">
        <ele>1550</ele>
        <time>2018-09-02T06:52:14Z</time>
      </trkpt>
      <trkpt lat="45.17208" lon="6.4377">
        <ele>1549</ele>
        <time>2018-09-02T06:52:20Z</time>
      </trkpt>
      <trkpt lat="45.17183" lon="6.43766">
        <ele>1547</ele>
        <time>2018-09-02T06:52:26Z</time>
      </trkpt>
      <trkpt lat="45.17149" lon="6.43753">
        <ele>1542</ele>
        <time>2018-09-02T06:52:32Z</time>
      </trkpt>
      <trkpt lat="45.17123" lon="6.43747">
        <ele>1541</ele>
        <time>2018-09-02T06:52:38Z</time>
      </trkpt>
      <trkpt lat="45.17075" lon="6.43739">
        <ele>1542</ele>
        <time>2018-09-02T06:52:50Z</time>
      </trkpt>
      <trkpt lat="45.17049" lon="6.43726">
        <ele>1536</ele>
        <time>2018-09-02T06:52:56Z</time>
      </trkpt>
      <trkpt lat="45.17023" lon="6.43707">
        <ele>1530</ele>
        <time>2018-09-02T06:53:02Z</time>
      </trkpt>
      <trkpt lat="45.16997" lon="6.4369">
        <ele>1527</ele>
        <time>2018-09-02T06:53:08Z</time>
      </trkpt>
      <trkpt lat="45.16965" lon="6.43676">
        <ele>1525</ele>
        <time>2018-09-02T06:53:14Z</time>
      </trkpt>
      <trkpt lat="45.16926" lon="6.43661">
        <ele>1518</ele>
        <time>2018-09-02T06:53:20Z</time>
      </trkpt>
      <trkpt lat="45.16887" lon="6.43644">
        <ele>1513</ele>
        <time>2018-09-02T06:53:26Z</time>
      </trkpt>
      <trkpt lat="45.16866" lon="6.43618">
        <ele>1506</ele>
        <time>2018-09-02T06:53:32Z</time>
      </trkpt>
      <trkpt lat="45.16852" lon="6.43608">
        <ele>1504</ele>
        <time>2018-09-02T06:53:38Z</time>
      </trkpt>
      <trkpt lat="45.16803" lon="6.43579">
        <ele>1497</ele>
        <time>2018-09-02T06:53:50Z</time>
      </trkpt>
      <trkpt lat="45.16772" lon="6.43569">
        <ele>1496</ele>
        <time>2018-09-02T06:53:56Z</time>
      </trkpt>
      <trkpt lat="45.16735" lon="6.43557">
        <ele>1485</ele>
        <time>2018-09-02T06:54:02Z</time>
      </trkpt>
      <trkpt lat="45.16704" lon="6.43558">
        <ele>1485</ele>
        <time>2018-09-02T06:54:08Z</time>
      </trkpt>
      <trkpt lat="45.1668" lon="6.43544">
        <ele>1483</ele>
        <time>2018-09-02T06:54:14Z</time>
      </trkpt>
      <trkpt lat="45.16661" lon="6.43522">
        <ele>1478</ele>
        <time>2018-09-02T06:54:20Z</time>
      </trkpt>
      <trkpt lat="45.16641" lon="6.43515">
        <ele>1481</ele>
        <time>2018-09-02T06:54:26Z</time>
      </trkpt>
      <trkpt lat="45.16625" lon="6.43509">
        <ele>1481</ele>
        <time>2018-09-02T06:54:32Z</time>
      </trkpt>
      <trkpt lat="45.16607" lon="6.43489">
        <ele>1478</ele>
        <time>2018-09-02T06:54:38Z</time>
      </trkpt>
      <trkpt lat="45.16587" lon="6.43489">
        <ele>1482</ele>
        <time>2018-09-02T06:54:44Z</time>
      </trkpt>
      <trkpt lat="45.16569" lon="6.43483">
        <ele>1484</ele>
        <time>2018-09-02T06:54:50Z</time>
      </trkpt>
      <trkpt lat="45.16537" lon="6.43468">
        <ele>1485</ele>
        <time>2018-09-02T06:55:02Z</time>
      </trkpt>
      <trkpt lat="45.16532" lon="6.43465">
        <ele>1485</ele>
        <time>2018-09-02T06:55:08Z</time>
      </trkpt>
      <trkpt lat="45.16534" lon="6.43462">
        <ele>1483</ele>
        <time>2018-09-02T06:55:20Z</time>
      </trkpt>
      <trkpt lat="45.16532" lon="6.43452">
        <ele>1479</ele>
        <time>2018-09-02T06:55:32Z</time>
      </trkpt>
      <trkpt lat="45.16534" lon="6.43464">
        <ele>1484</ele>
        <time>2018-09-02T06:55:38Z</time>
      </trkpt>
    </trkseg>
  </trk>
</gpx>